Wetterdaten: Montag, 17.12.2018
Datum Zeit Temp. Aussen Temp. o. S. +5cm Feuchte Auss Luftdruck Regen Sonnenschein Regendauer Solar Windben Empfang
17.12.2018 00:00 1,3 C 1,1 C 0,6 C 95 % 1012,3 hPa 0,0 l/m 0 min 0 min 0 W/m 0,0 km/h (0 Bft) 100,00 %
17.12.2018 00:02 1,3 C 1,1 C 0,6 C 95 % 1012,3 hPa 0,0 l/m 0 min 0 min 0 W/m 0,0 km/h (0 Bft) 12,50 %
17.12.2018 00:04 1,3 C 1,1 C 0,6 C 95 % 1012,4 hPa 0,0 l/m 0 min 0 min 0 W/m 3,2 km/h (1 Bft) 84,21 %
17.12.2018 00:07 1,3 C 1,1 C 0,6 C 95 % 1012,3 hPa 0,0 l/m 0 min 0 min 0 W/m 6,4 km/h (2 Bft) 100,00 %
17.12.2018 00:08 1,3 C 1,1 C 0,6 C 95 % 1012,3 hPa 0,0 l/m 0 min 0 min 0 W/m 0,0 km/h (0 Bft) 100,00 %
17.12.2018 00:10 1,3 C 1,1 C 0,6 C 95 % 1012,3 hPa 0,0 l/m 0 min 0 min 0 W/m 6,4 km/h (2 Bft) 97,87 %
17.12.2018 00:12 1,3 C 1,1 C 0,6 C 95 % 1012,2 hPa 0,0 l/m 0 min 0 min 0 W/m 0,0 km/h (0 Bft) 100,00 %
17.12.2018 00:14 1,3 C 1,1 C 0,6 C 95 % 1012,2 hPa 0,0 l/m 0 min 0 min 0 W/m 0,0 km/h (0 Bft) 97,83 %
17.12.2018 00:16 1,3 C 1,1 C 0,6 C 95 % 1012,3 hPa 0,0 l/m 0 min 0 min 0 W/m 0,0 km/h (0 Bft) 100,00 %
17.12.2018 00:18 1,3 C 1,1 C 0,6 C 95 % 1012,2 hPa 0,0 l/m 0 min 0 min 0 W/m 0,0 km/h (0 Bft) 100,00 %
17.12.2018 00:20 1,3 C 1,1 C 0,6 C 95 % 1012,3 hPa 0,0 l/m 0 min 0 min 0 W/m 0,0 km/h (0 Bft) 100,00 %
17.12.2018 00:22 1,3 C 1,1 C 0,6 C 95 % 1012,3 hPa 0,0 l/m 0 min 0 min 0 W/m 0,0 km/h (0 Bft) 97,87 %
17.12.2018 00:24 1,3 C 0,6 C 0,6 C 95 % 1012,3 hPa 0,0 l/m 0 min 0 min 0 W/m 0,0 km/h (0 Bft) 97,87 %
17.12.2018 00:26 1,3 C 0,6 C 0,6 C 95 % 1012,3 hPa 0,0 l/m 0 min 0 min 0 W/m 0,0 km/h (0 Bft) 100,00 %
17.12.2018 00:28 1,3 C 0,6 C 0,6 C 95 % 1012,3 hPa 0,0 l/m 0 min 0 min 0 W/m 3,2 km/h (1 Bft) 100,00 %
17.12.2018 00:30 1,3 C 0,6 C 0,6 C 95 % 1012,3 hPa 0,0 l/m 0 min 0 min 0 W/m 6,4 km/h (2 Bft) 97,87 %
17.12.2018 00:32 1,3 C 0,6 C 0,6 C 95 % 1012,3 hPa 0,0 l/m 0 min 0 min 0 W/m 3,2 km/h (1 Bft) 100,00 %
17.12.2018 00:34 1,3 C 0,6 C 0,6 C 95 % 1012,2 hPa 0,0 l/m 0 min 0 min 0 W/m 6,4 km/h (2 Bft) 100,00 %
17.12.2018 00:36 1,3 C 0,6 C 0,6 C 95 % 1012,2 hPa 0,0 l/m 0 min 0 min 0 W/m 0,0 km/h (0 Bft) 100,00 %
17.12.2018 00:38 1,3 C 1,1 C 0,6 C 95 % 1012,1 hPa 0,0 l/m 0 min 0 min 0 W/m 0,0 km/h (0 Bft) 100,00 %
17.12.2018 00:40 1,3 C 1,1 C 0,6 C 95 % 1012,1 hPa 0,0 l/m 0 min 0 min 0 W/m 0,0 km/h (0 Bft) 100,00 %
17.12.2018 00:42 1,3 C 1,1 C 0,6 C 95 % 1012,1 hPa 0,0 l/m 0 min 0 min 0 W/m 0,0 km/h (0 Bft) 97,87 %
17.12.2018 00:44 1,3 C 1,1 C 0,6 C 95 % 1012,1 hPa 0,0 l/m 0 min 0 min 0 W/m 3,2 km/h (1 Bft) 100,00 %
17.12.2018 00:46 1,3 C 1,1 C 0,6 C 95 % 1012,0 hPa 0,0 l/m 0 min 0 min 0 W/m 3,2 km/h (1 Bft) 100,00 %
17.12.2018 00:48 1,3 C 1,1 C 0,6 C 95 % 1012,1 hPa 0,0 l/m 0 min 0 min 0 W/m 16,1 km/h (3 Bft) 100,00 %
17.12.2018 00:50 1,3 C 1,1 C 0,6 C 95 % 1012,0 hPa 0,0 l/m 0 min 0 min 0 W/m 3,2 km/h (1 Bft) 95,65 %
17.12.2018 00:52 1,3 C 1,1 C 0,6 C 95 % 1012,1 hPa 0,0 l/m 0 min 0 min 0 W/m 0,0 km/h (0 Bft) 100,00 %
17.12.2018 00:54 1,3 C 1,1 C 0,6 C 95 % 1012,1 hPa 0,0 l/m 0 min 0 min 0 W/m 0,0 km/h (0 Bft) 100,00 %
17.12.2018 00:56 1,3 C 1,1 C 0,6 C 95 % 1012,0 hPa 0,0 l/m 0 min 0 min 0 W/m 0,0 km/h (0 Bft) 100,00 %
17.12.2018 00:58 1,3 C 1,1 C 0,6 C 95 % 1012,0 hPa 0,0 l/m 0 min 0 min 0 W/m 3,2 km/h (1 Bft) 97,87 %
17.12.2018 01:00 1,3 C 1,1 C 0,6 C 95 % 1012,0 hPa 0,0 l/m 0 min 0 min 0 W/m 0,0 km/h (0 Bft) 97,87 %
17.12.2018 01:02 1,3 C 1,1 C 0,6 C 95 % 1012,1 hPa 0,0 l/m 0 min 0 min 0 W/m 0,0 km/h (0 Bft) 97,83 %
17.12.2018 01:04 1,3 C 1,1 C 0,6 C 95 % 1012,0 hPa 0,0 l/m 0 min 0 min 0 W/m 3,2 km/h (1 Bft) 95,74 %
17.12.2018 01:06 1,3 C 1,1 C 0,6 C 95 % 1012,0 hPa 0,0 l/m 0 min 0 min 0 W/m 12,9 km/h (3 Bft) 95,74 %
17.12.2018 01:08 1,3 C 1,1 C 0,6 C 96 % 1012,0 hPa 0,0 l/m 0 min 0 min 0 W/m 3,2 km/h (1 Bft) 97,87 %
17.12.2018 01:10 1,3 C 1,1 C 0,6 C 95 % 1012,0 hPa 0,0 l/m 0 min 0 min 0 W/m 0,0 km/h (0 Bft) 95,74 %
17.12.2018 01:12 1,3 C 1,1 C 0,6 C 95 % 1011,9 hPa 0,0 l/m 0 min 0 min 0 W/m 3,2 km/h (1 Bft) 97,87 %
17.12.2018 01:14 1,3 C 1,1 C 0,6 C 95 % 1011,9 hPa 0,0 l/m 0 min 0 min 0 W/m 0,0 km/h (0 Bft) 97,83 %
17.12.2018 01:16 1,4 C 1,1 C 0,6 C 95 % 1011,9 hPa 0,0 l/m 0 min 0 min 0 W/m 0,0 km/h (0 Bft) 97,87 %
17.12.2018 01:18 1,4 C 1,1 C 0,6 C 95 % 1011,9 hPa 0,0 l/m 0 min 0 min 0 W/m 0,0 km/h (0 Bft) 97,87 %
17.12.2018 01:20 1,4 C 1,1 C 0,6 C 96 % 1011,9 hPa 0,0 l/m 0 min 0 min 0 W/m 0,0 km/h (0 Bft) 95,74 %
17.12.2018 01:22 1,4 C 1,1 C 0,6 C 96 % 1011,8 hPa 0,0 l/m 0 min 0 min 0 W/m 0,0 km/h (0 Bft) 93,62 %
17.12.2018 01:24 1,5 C 1,1 C 0,6 C 96 % 1011,8 hPa 0,0 l/m 0 min 0 min 0 W/m 9,7 km/h (2 Bft) 95,65 %
17.12.2018 01:26 1,5 C 1,1 C 0,6 C 96 % 1011,8 hPa 0,0 l/m 0 min 0 min 0 W/m 9,7 km/h (2 Bft) 97,87 %
17.12.2018 01:28 1,6 C 1,1 C 0,6 C 96 % 1011,8 hPa 0,0 l/m 0 min 0 min 0 W/m 0,0 km/h (0 Bft) 95,74 %
17.12.2018 01:30 1,6 C 1,1 C 0,6 C 96 % 1011,8 hPa 0,0 l/m 0 min 0 min 0 W/m 0,0 km/h (0 Bft) 93,62 %
17.12.2018 01:32 1,6 C 1,1 C 0,6 C 96 % 1011,8 hPa 0,0 l/m 0 min 0 min 0 W/m 0,0 km/h (0 Bft) 97,87 %
17.12.2018 01:34 1,6 C 1,1 C 0,6 C 96 % 1011,8 hPa 0,0 l/m 0 min 0 min 0 W/m 3,2 km/h (1 Bft) 97,87 %
17.12.2018 01:36 1,6 C 1,1 C 0,6 C 96 % 1011,8 hPa 0,0 l/m 0 min 0 min 0 W/m 6,4 km/h (2 Bft) 95,65 %
17.12.2018 01:38 1,6 C 1,1 C 0,6 C 96 % 1011,8 hPa 0,0 l/m 0 min 0 min 0 W/m 3,2 km/h (1 Bft) 95,74 %
17.12.2018 01:40 1,6 C 1,1 C 0,6 C 96 % 1011,8 hPa 0,0 l/m 0 min 0 min 0 W/m 3,2 km/h (1 Bft) 93,62 %
17.12.2018 01:42 1,6 C 1,1 C 0,6 C 96 % 1011,8 hPa 0,0 l/m 0 min 0 min 0 W/m 3,2 km/h (1 Bft) 97,87 %
17.12.2018 01:44 1,6 C 1,1 C 0,6 C 96 % 1011,8 hPa 0,0 l/m 0 min 0 min 0 W/m 0,0 km/h (0 Bft) 97,87 %
17.12.2018 01:46 1,6 C 1,1 C 0,6 C 96 % 1011,8 hPa 0,0 l/m 0 min 0 min 0 W/m 0,0 km/h (0 Bft) 95,74 %
17.12.2018 01:48 1,6 C 1,1 C 0,6 C 96 % 1011,8 hPa 0,0 l/m 0 min 0 min 0 W/m 0,0 km/h (0 Bft) 97,83 %
17.12.2018 01:50 1,6 C 1,1 C 0,0 C 96 % 1011,7 hPa 0,0 l/m 0 min 0 min 0 W/m 0,0 km/h (0 Bft) 97,87 %
17.12.2018 01:52 1,6 C 1,1 C 0,0 C 96 % 1011,8 hPa 0,2 l/m 0 min 0 min 0 W/m 0,0 km/h (0 Bft) 97,87 %
17.12.2018 01:54 1,6 C 1,1 C 0,0 C 96 % 1011,7 hPa 0,0 l/m 0 min 0 min 0 W/m 0,0 km/h (0 Bft) 95,74 %
17.12.2018 01:56 1,6 C 1,1 C 0,0 C 96 % 1011,7 hPa 0,0 l/m 0 min 0 min 0 W/m 0,0 km/h (0 Bft) 95,74 %
17.12.2018 01:58 1,6 C 1,1 C 0,0 C 96 % 1011,7 hPa 0,0 l/m 0 min 0 min 0 W/m 0,0 km/h (0 Bft) 97,87 %
17.12.2018 02:00 1,6 C 1,1 C 0,0 C 96 % 1011,7 hPa 0,0 l/m 0 min 0 min 0 W/m 0,0 km/h (0 Bft) 97,83 %
17.12.2018 02:02 1,5 C 1,1 C 0,0 C 96 % 1011,7 hPa 0,0 l/m 0 min 0 min 0 W/m 3,2 km/h (1 Bft) 93,62 %
17.12.2018 02:04 1,5 C 1,1 C 0,0 C 96 % 1011,8 hPa 0,0 l/m 0 min 0 min 0 W/m 0,0 km/h (0 Bft) 97,87 %
17.12.2018 02:06 1,5 C 1,1 C 0,6 C 96 % 1011,7 hPa 0,0 l/m 0 min 0 min 0 W/m 0,0 km/h (0 Bft) 97,87 %
17.12.2018 02:08 1,5 C 1,1 C 0,0 C 96 % 1011,6 hPa 0,0 l/m 0 min 0 min 0 W/m 0,0 km/h (0 Bft) 97,87 %
17.12.2018 02:10 1,5 C 1,1 C 0,0 C 96 % 1011,8 hPa 0,0 l/m 0 min 0 min 0 W/m 0,0 km/h (0 Bft) 95,74 %
17.12.2018 02:12 1,5 C 1,1 C 0,0 C 96 % 1011,7 hPa 0,0 l/m 0 min 0 min 0 W/m 3,2 km/h (1 Bft) 97,83 %
17.12.2018 02:14 1,5 C 1,1 C 0,0 C 96 % 1011,7 hPa 0,0 l/m 0 min 0 min 0 W/m 9,7 km/h (2 Bft) 95,74 %
17.12.2018 02:16 1,5 C 1,1 C 0,0 C 96 % 1011,6 hPa 0,0 l/m 0 min 0 min 0 W/m 6,4 km/h (2 Bft) 93,62 %
17.12.2018 02:18 1,5 C 1,1 C 0,0 C 96 % 1011,7 hPa 0,0 l/m 0 min 0 min 0 W/m 0,0 km/h (0 Bft) 95,74 %
17.12.2018 02:20 1,5 C 1,1 C 0,0 C 96 % 1011,6 hPa 0,0 l/m 0 min 0 min 0 W/m 0,0 km/h (0 Bft) 95,74 %
17.12.2018 02:22 1,5 C 1,1 C 0,0 C 96 % 1011,7 hPa 0,0 l/m 0 min 0 min 0 W/m 0,0 km/h (0 Bft) 93,62 %
17.12.2018 02:24 1,5 C 1,1 C 0,0 C 96 % 1011,8 hPa 0,0 l/m 0 min 0 min 0 W/m 0,0 km/h (0 Bft) 97,83 %
17.12.2018 02:26 1,5 C 1,1 C 0,0 C 96 % 1011,8 hPa 0,0 l/m 0 min 0 min 0 W/m 6,4 km/h (2 Bft) 97,87 %
17.12.2018 02:28 1,5 C 1,1 C 0,0 C 96 % 1011,8 hPa 0,0 l/m 0 min 0 min 0 W/m 0,0 km/h (0 Bft) 97,87 %
17.12.2018 02:30 1,5 C 1,1 C 0,0 C 96 % 1011,8 hPa 0,0 l/m 0 min 0 min 0 W/m 3,2 km/h (1 Bft) 97,87 %
17.12.2018 02:32 1,5 C 1,1 C 0,0 C 96 % 1011,8 hPa 0,0 l/m 0 min 0 min 0 W/m 3,2 km/h (1 Bft) 97,87 %
17.12.2018 02:34 1,5 C 1,1 C 0,0 C 96 % 1011,8 hPa 0,0 l/m 0 min 0 min 0 W/m 0,0 km/h (0 Bft) 97,83 %
17.12.2018 02:36 1,5 C 1,1 C 0,0 C 96 % 1011,8 hPa 0,0 l/m 0 min 0 min 0 W/m 0,0 km/h (0 Bft) 97,87 %
17.12.2018 02:38 1,5 C 1,1 C 0,0 C 96 % 1011,8 hPa 0,0 l/m 0 min 0 min 0 W/m 12,9 km/h (3 Bft) 97,87 %
17.12.2018 02:40 1,5 C 1,1 C 0,0 C 96 % 1011,8 hPa 0,0 l/m 0 min 0 min 0 W/m 0,0 km/h (0 Bft) 97,87 %
17.12.2018 02:42 1,5 C 1,1 C 0,0 C 96 % 1011,9 hPa 0,0 l/m 0 min 0 min 0 W/m 0,0 km/h (0 Bft) 97,87 %
17.12.2018 02:44 1,5 C 1,1 C 0,0 C 96 % 1011,9 hPa 0,0 l/m 0 min 0 min 0 W/m 0,0 km/h (0 Bft) 97,87 %
17.12.2018 02:46 1,5 C 1,1 C 0,0 C 96 % 1011,8 hPa 0,0 l/m 0 min 0 min 0 W/m 3,2 km/h (1 Bft) 97,83 %
17.12.2018 02:48 1,5 C 1,1 C 0,0 C 96 % 1011,8 hPa 0,0 l/m 0 min 0 min 0 W/m 6,4 km/h (2 Bft) 97,87 %
17.12.2018 02:50 1,5 C 1,1 C 0,0 C 96 % 1011,9 hPa 0,0 l/m 0 min 0 min 0 W/m 0,0 km/h (0 Bft) 95,74 %
17.12.2018 02:52 1,5 C 1,1 C 0,0 C 96 % 1011,9 hPa 0,0 l/m 0 min 0 min 0 W/m 9,7 km/h (2 Bft) 95,74 %
17.12.2018 02:54 1,5 C 1,1 C 0,0 C 96 % 1011,9 hPa 0,0 l/m 0 min 0 min 0 W/m 0,0 km/h (0 Bft) 97,87 %
17.12.2018 02:56 1,5 C 1,1 C 0,0 C 96 % 1011,9 hPa 0,0 l/m 0 min 0 min 0 W/m 3,2 km/h (1 Bft) 97,87 %
17.12.2018 02:58 1,5 C 1,1 C 0,0 C 96 % 1011,9 hPa 0,0 l/m 0 min 0 min 0 W/m 0,0 km/h (0 Bft) 97,83 %
17.12.2018 03:00 1,5 C 1,1 C 0,0 C 96 % 1011,8 hPa 0,0 l/m 0 min 0 min 0 W/m 3,2 km/h (1 Bft) 97,87 %
17.12.2018 03:02 1,5 C 1,1 C 0,0 C 96 % 1011,9 hPa 0,0 l/m 0 min 0 min 0 W/m 3,2 km/h (1 Bft) 97,87 %
17.12.2018 03:04 1,5 C 1,1 C 0,0 C 96 % 1011,9 hPa 0,0 l/m 0 min 0 min 0 W/m 9,7 km/h (2 Bft) 97,87 %
17.12.2018 03:06 1,5 C 1,1 C 0,6 C 96 % 1012,0 hPa 0,0 l/m 0 min 0 min 0 W/m 3,2 km/h (1 Bft) 97,87 %
17.12.2018 03:08 1,5 C 1,1 C 0,6 C 96 % 1012,0 hPa 0,0 l/m 0 min 0 min 0 W/m 6,4 km/h (2 Bft) 97,87 %
17.12.2018 03:10 1,5 C 1,1 C 0,6 C 96 % 1012,0 hPa 0,0 l/m 0 min 0 min 0 W/m 12,9 km/h (3 Bft) 97,83 %
17.12.2018 03:12 1,5 C 1,1 C 0,6 C 96 % 1011,9 hPa 0,0 l/m 0 min 0 min 0 W/m 12,9 km/h (3 Bft) 97,87 %
17.12.2018 03:14 1,5 C 1,1 C 0,6 C 96 % 1011,9 hPa 0,0 l/m 0 min 0 min 0 W/m 16,1 km/h (3 Bft) 97,87 %
17.12.2018 03:16 1,5 C 1,1 C 0,6 C 96 % 1011,8 hPa 0,0 l/m 0 min 0 min 0 W/m 12,9 km/h (3 Bft) 97,87 %
17.12.2018 03:18 1,5 C 1,1 C 0,0 C 96 % 1011,8 hPa 0,0 l/m 0 min 0 min 0 W/m 6,4 km/h (2 Bft) 100,00 %
17.12.2018 03:20 1,5 C 1,1 C 0,6 C 96 % 1011,9 hPa 0,0 l/m 0 min 0 min 0 W/m 12,9 km/h (3 Bft) 100,00 %
17.12.2018 03:22 1,5 C 1,1 C 0,6 C 96 % 1011,9 hPa 0,0 l/m 0 min 0 min 0 W/m 16,1 km/h (3 Bft) 100,00 %
17.12.2018 03:24 1,5 C 1,1 C 0,6 C 96 % 1011,9 hPa 0,0 l/m 0 min 0 min 0 W/m 6,4 km/h (2 Bft) 100,00 %
17.12.2018 03:26 1,5 C 1,1 C 0,0 C 96 % 1012,0 hPa 0,0 l/m 0 min 0 min 0 W/m 9,7 km/h (2 Bft) 97,87 %
17.12.2018 03:28 1,5 C 1,1 C 0,6 C 96 % 1011,9 hPa 0,0 l/m 0 min 0 min 0 W/m 12,9 km/h (3 Bft) 97,87 %
17.12.2018 03:30 1,5 C 1,1 C 0,6 C 96 % 1011,9 hPa 0,0 l/m 0 min 0 min 0 W/m 9,7 km/h (2 Bft) 100,00 %
17.12.2018 03:32 1,5 C 1,1 C 0,0 C 96 % 1012,0 hPa 0,0 l/m 0 min 0 min 0 W/m 9,7 km/h (2 Bft) 97,83 %
17.12.2018 03:34 1,5 C 1,1 C 0,6 C 96 % 1012,0 hPa 0,0 l/m 0 min 0 min 0 W/m 19,3 km/h (3 Bft) 100,00 %
17.12.2018 03:36 1,5 C 1,1 C 0,6 C 96 % 1012,0 hPa 0,0 l/m 0 min 0 min 0 W/m 19,3 km/h (3 Bft) 97,87 %
17.12.2018 03:38 1,5 C 1,1 C 0,6 C 96 % 1012,0 hPa 0,0 l/m 0 min 0 min 0 W/m 25,7 km/h (4 Bft) 97,87 %
17.12.2018 03:40 1,5 C 1,1 C 0,6 C 96 % 1011,9 hPa 0,0 l/m 0 min 0 min 0 W/m 16,1 km/h (3 Bft) 97,87 %
17.12.2018 03:42 1,5 C 1,1 C 0,6 C 96 % 1012,0 hPa 0,0 l/m 0 min 0 min 0 W/m 19,3 km/h (3 Bft) 95,74 %
17.12.2018 03:44 1,5 C 1,1 C 0,6 C 96 % 1012,0 hPa 0,0 l/m 0 min 0 min 0 W/m 16,1 km/h (3 Bft) 97,83 %
17.12.2018 03:46 1,5 C 1,1 C 0,6 C 96 % 1012,0 hPa 0,0 l/m 0 min 0 min 0 W/m 16,1 km/h (3 Bft) 97,87 %
17.12.2018 03:48 1,5 C 1,1 C 0,6 C 96 % 1012,0 hPa 0,0 l/m 0 min 0 min 0 W/m 16,1 km/h (3 Bft) 97,87 %
17.12.2018 03:50 1,6 C 1,1 C 0,6 C 96 % 1012,0 hPa 0,0 l/m 0 min 0 min 0 W/m 25,7 km/h (4 Bft) 97,87 %
17.12.2018 03:52 1,6 C 1,1 C 0,6 C 96 % 1012,1 hPa 0,0 l/m 0 min 0 min 0 W/m 12,9 km/h (3 Bft) 97,87 %
17.12.2018 03:54 1,6 C 1,1 C 0,6 C 96 % 1012,1 hPa 0,2 l/m 0 min 0 min 0 W/m 16,1 km/h (3 Bft) 97,87 %
17.12.2018 03:56 1,6 C 1,1 C 0,6 C 96 % 1012,1 hPa 0,0 l/m 0 min 0 min 0 W/m 22,5 km/h (4 Bft) 97,83 %
17.12.2018 03:58 1,6 C 1,1 C 0,6 C 96 % 1012,0 hPa 0,0 l/m 0 min 0 min 0 W/m 22,5 km/h (4 Bft) 93,62 %
17.12.2018 04:00 1,6 C 1,1 C 0,6 C 96 % 1012,1 hPa 0,0 l/m 0 min 0 min 0 W/m 9,7 km/h (2 Bft) 97,87 %
17.12.2018 04:02 1,6 C 1,1 C 0,6 C 96 % 1012,0 hPa 0,0 l/m 0 min 0 min 0 W/m 16,1 km/h (3 Bft) 100,00 %
17.12.2018 04:04 1,6 C 1,1 C 0,6 C 97 % 1012,1 hPa 0,0 l/m 0 min 0 min 0 W/m 16,1 km/h (3 Bft) 95,74 %
17.12.2018 04:06 1,6 C 1,1 C 0,6 C 96 % 1012,0 hPa 0,0 l/m 0 min 0 min 0 W/m 16,1 km/h (3 Bft) 95,74 %
17.12.2018 04:08 1,7 C 1,1 C 0,6 C 96 % 1012,0 hPa 0,0 l/m 0 min 0 min 0 W/m 22,5 km/h (4 Bft) 93,75 %
17.12.2018 04:10 1,7 C 1,1 C 0,6 C 96 % 1012,1 hPa 0,0 l/m 0 min 0 min 0 W/m 12,9 km/h (3 Bft) 91,49 %
17.12.2018 04:12 1,7 C 1,7 C 0,6 C 96 % 1012,1 hPa 0,0 l/m 0 min 0 min 0 W/m 12,9 km/h (3 Bft) 97,87 %
17.12.2018 04:14 1,7 C 1,7 C 0,6 C 96 % 1012,1 hPa 0,0 l/m 0 min 0 min 0 W/m 16,1 km/h (3 Bft) 95,74 %
17.12.2018 04:16 1,7 C 1,7 C 0,6 C 97 % 1012,1 hPa 0,0 l/m 0 min 0 min 0 W/m 19,3 km/h (3 Bft) 95,74 %
17.12.2018 04:18 1,8 C 1,7 C 0,6 C 97 % 1012,1 hPa 0,0 l/m 0 min 0 min 0 W/m 19,3 km/h (3 Bft) 95,74 %
17.12.2018 04:20 1,8 C 1,7 C 0,6 C 97 % 1012,0 hPa 0,0 l/m 0 min 0 min 0 W/m 16,1 km/h (3 Bft) 97,83 %
17.12.2018 04:22 1,8 C 1,7 C 0,6 C 97 % 1012,1 hPa 0,0 l/m 0 min 0 min 0 W/m 16,1 km/h (3 Bft) 97,87 %
17.12.2018 04:24 1,8 C 1,1 C 0,6 C 97 % 1012,1 hPa 0,0 l/m 0 min 0 min 0 W/m 12,9 km/h (3 Bft) 97,87 %
17.12.2018 04:26 1,8 C 1,1 C 0,6 C 97 % 1012,1 hPa 0,0 l/m 0 min 0 min 0 W/m 16,1 km/h (3 Bft) 97,87 %
17.12.2018 04:28 1,8 C 1,1 C 0,6 C 97 % 1012,1 hPa 0,0 l/m 0 min 0 min 0 W/m 9,7 km/h (2 Bft) 97,87 %
17.12.2018 04:30 1,8 C 1,1 C 0,6 C 97 % 1012,2 hPa 0,0 l/m 0 min 0 min 0 W/m 16,1 km/h (3 Bft) 97,83 %
17.12.2018 04:32 1,8 C 1,1 C 0,6 C 97 % 1012,2 hPa 0,0 l/m 0 min 0 min 0 W/m 19,3 km/h (3 Bft) 95,74 %
17.12.2018 04:34 1,8 C 1,1 C 0,6 C 97 % 1012,2 hPa 0,0 l/m 0 min 0 min 0 W/m 16,1 km/h (3 Bft) 97,87 %
17.12.2018 04:36 1,8 C 1,1 C 0,6 C 97 % 1012,3 hPa 0,0 l/m 0 min 0 min 0 W/m 16,1 km/h (3 Bft) 96,15 %
17.12.2018 04:38 1,8 C 1,1 C 0,6 C 97 % 1012,3 hPa 0,0 l/m 0 min 0 min 0 W/m 16,1 km/h (3 Bft) 100,00 %
17.12.2018 04:40 1,8 C 1,1 C 0,6 C 97 % 1012,2 hPa 0,0 l/m 0 min 0 min 0 W/m 16,1 km/h (3 Bft) 95,74 %
17.12.2018 04:42 1,7 C 1,1 C 0,6 C 97 % 1012,3 hPa 0,0 l/m 0 min 0 min 0 W/m 9,7 km/h (2 Bft) 95,65 %
17.12.2018 04:44 1,8 C 1,7 C 0,6 C 97 % 1012,2 hPa 0,0 l/m 0 min 0 min 0 W/m 22,5 km/h (4 Bft) 97,87 %
17.12.2018 04:46 1,8 C 1,7 C 0,6 C 97 % 1012,3 hPa 0,0 l/m 0 min 0 min 0 W/m 12,9 km/h (3 Bft) 95,74 %
17.12.2018 04:48 1,8 C 1,7 C 0,6 C 97 % 1012,2 hPa 0,0 l/m 0 min 0 min 0 W/m 12,9 km/h (3 Bft) 97,87 %
17.12.2018 04:50 1,8 C 1,7 C 1,1 C 97 % 1012,2 hPa 0,0 l/m 0 min 0 min 0 W/m 25,7 km/h (4 Bft) 95,74 %
17.12.2018 04:52 1,8 C 1,7 C 1,1 C 97 % 1012,1 hPa 0,0 l/m 0 min 0 min 0 W/m 19,3 km/h (3 Bft) 98,08 %
17.12.2018 04:54 1,8 C 1,7 C 1,1 C 97 % 1012,1 hPa 0,0 l/m 0 min 0 min 0 W/m 25,7 km/h (4 Bft) 97,73 %
17.12.2018 04:56 1,8 C 1,7 C 1,1 C 97 % 1012,2 hPa 0,0 l/m 0 min 0 min 0 W/m 19,3 km/h (3 Bft) 97,87 %
17.12.2018 04:58 1,9 C 1,7 C 1,1 C 97 % 1012,2 hPa 0,0 l/m 0 min 0 min 0 W/m 12,9 km/h (3 Bft) 97,87 %
17.12.2018 05:00 1,9 C 1,7 C 1,1 C 97 % 1012,3 hPa 0,0 l/m 0 min 0 min 0 W/m 22,5 km/h (4 Bft) 97,87 %
17.12.2018 05:02 1,9 C 1,7 C 1,1 C 97 % 1012,2 hPa 0,0 l/m 0 min 0 min 0 W/m 19,3 km/h (3 Bft) 97,87 %
17.12.2018 05:04 1,9 C 1,7 C 1,1 C 97 % 1012,2 hPa 0,0 l/m 0 min 0 min 0 W/m 25,7 km/h (4 Bft) 97,87 %
17.12.2018 05:05 1,9 C 1,7 C 1,1 C 97 % 1012,2 hPa 0,0 l/m 0 min 0 min 0 W/m 25,7 km/h (4 Bft) 100,00 %
17.12.2018 05:10 1,9 C 1,7 C 1,1 C 97 % 1012,2 hPa 0,0 l/m 0 min 0 min 0 W/m 19,3 km/h (3 Bft) 100,00 %
17.12.2018 05:12 1,9 C 1,7 C 1,1 C 97 % 1012,1 hPa 0,0 l/m 0 min 0 min 0 W/m 19,3 km/h (3 Bft) 100,00 %
17.12.2018 05:14 1,9 C 1,7 C 1,1 C 97 % 1012,2 hPa 0,0 l/m 0 min 0 min 0 W/m 22,5 km/h (4 Bft) 100,00 %
17.12.2018 05:16 2,0 C 1,7 C 1,1 C 97 % 1012,2 hPa 0,0 l/m 0 min 0 min 0 W/m 22,5 km/h (4 Bft) 100,00 %
17.12.2018 05:18 2,0 C 1,7 C 1,1 C 97 % 1012,2 hPa 0,0 l/m 0 min 0 min 0 W/m 12,9 km/h (3 Bft) 100,00 %
17.12.2018 05:20 2,0 C 1,7 C 1,1 C 97 % 1012,2 hPa 0,0 l/m 0 min 0 min 0 W/m 19,3 km/h (3 Bft) 100,00 %
17.12.2018 05:22 2,0 C 1,7 C 1,1 C 97 % 1012,1 hPa 0,0 l/m 0 min 0 min 0 W/m 19,3 km/h (3 Bft) 100,00 %
17.12.2018 05:24 2,0 C 1,7 C 1,1 C 97 % 1012,1 hPa 0,2 l/m 0 min 0 min 0 W/m 25,7 km/h (4 Bft) 100,00 %
17.12.2018 05:26 2,1 C 1,7 C 1,1 C 97 % 1012,2 hPa 0,0 l/m 0 min 0 min 0 W/m 19,3 km/h (3 Bft) 100,00 %
17.12.2018 05:28 2,1 C 1,7 C 1,1 C 97 % 1012,1 hPa 0,0 l/m 0 min 0 min 0 W/m 16,1 km/h (3 Bft) 100,00 %
17.12.2018 05:30 2,1 C 1,7 C 1,1 C 97 % 1012,2 hPa 0,0 l/m 0 min 0 min 0 W/m 12,9 km/h (3 Bft) 98,00 %
17.12.2018 05:32 2,1 C 1,7 C 1,1 C 97 % 1012,2 hPa 0,0 l/m 0 min 0 min 0 W/m 12,9 km/h (3 Bft) 100,00 %
17.12.2018 05:34 2,1 C 1,7 C 1,1 C 97 % 1012,1 hPa 0,0 l/m 0 min 0 min 0 W/m 12,9 km/h (3 Bft) 98,00 %
17.12.2018 05:36 2,1 C 2,2 C 1,1 C 97 % 1012,2 hPa 0,0 l/m 0 min 0 min 0 W/m 22,5 km/h (4 Bft) 100,00 %
17.12.2018 05:38 2,1 C 2,2 C 1,1 C 97 % 1012,2 hPa 0,0 l/m 0 min 0 min 0 W/m 25,7 km/h (4 Bft) 100,00 %
17.12.2018 05:40 2,2 C 2,2 C 1,1 C 97 % 1012,2 hPa 0,0 l/m 0 min 2 min 0 W/m 16,1 km/h (3 Bft) 100,00 %
17.12.2018 05:42 2,2 C 2,2 C 1,1 C 97 % 1012,3 hPa 0,0 l/m 0 min 2 min 0 W/m 16,1 km/h (3 Bft) 100,00 %
17.12.2018 05:44 2,2 C 1,7 C 1,1 C 97 % 1012,3 hPa 0,2 l/m 0 min 2 min 0 W/m 25,7 km/h (4 Bft) 97,14 %
17.12.2018 05:46 2,2 C 1,7 C 1,1 C 97 % 1012,4 hPa 0,0 l/m 0 min 2 min 0 W/m 22,5 km/h (4 Bft) 98,11 %
17.12.2018 05:48 2,3 C 1,7 C 1,1 C 97 % 1012,4 hPa 0,0 l/m 0 min 2 min 0 W/m 19,3 km/h (3 Bft) 97,87 %
17.12.2018 05:50 2,3 C 1,7 C 1,1 C 97 % 1012,3 hPa 0,0 l/m 0 min 2 min 0 W/m 22,5 km/h (4 Bft) 98,00 %
17.12.2018 05:52 2,3 C 1,7 C 1,1 C 97 % 1012,4 hPa 0,0 l/m 0 min 2 min 0 W/m 16,1 km/h (3 Bft) 97,87 %
17.12.2018 05:54 2,3 C 1,7 C 1,1 C 97 % 1012,4 hPa 0,0 l/m 0 min 0 min 0 W/m 9,7 km/h (2 Bft) 97,83 %
17.12.2018 05:56 2,3 C 1,7 C 1,1 C 97 % 1012,4 hPa 0,0 l/m 0 min 0 min 0 W/m 22,5 km/h (4 Bft) 98,00 %
17.12.2018 05:58 2,3 C 1,7 C 1,1 C 97 % 1012,5 hPa 0,0 l/m 0 min 0 min 0 W/m 19,3 km/h (3 Bft) 97,87 %
17.12.2018 06:00 2,3 C 1,7 C 1,1 C 97 % 1012,4 hPa 0,0 l/m 0 min 0 min 0 W/m 12,9 km/h (3 Bft) 97,87 %
17.12.2018 06:02 2,3 C 1,7 C 1,1 C 97 % 1012,5 hPa 0,2 l/m 0 min 0 min 0 W/m 16,1 km/h (3 Bft) 97,37 %
17.12.2018 06:04 2,3 C 1,7 C 1,1 C 97 % 1012,5 hPa 0,0 l/m 0 min 0 min 0 W/m 19,3 km/h (3 Bft) 97,83 %
17.12.2018 06:08 2,4 C 1,7 C 1,1 C 97 % 1012,6 hPa 0,0 l/m 0 min 0 min 0 W/m 25,7 km/h (4 Bft) 98,00 %
17.12.2018 06:10 2,4 C 1,7 C 1,1 C 97 % 1012,7 hPa 0,0 l/m 0 min 0 min 0 W/m 22,5 km/h (4 Bft) 97,87 %
17.12.2018 06:12 2,4 C 1,7 C 1,1 C 97 % 1012,7 hPa 0,0 l/m 0 min 0 min 0 W/m 19,3 km/h (3 Bft) 98,00 %
17.12.2018 06:14 2,4 C 1,7 C 1,1 C 97 % 1012,6 hPa 0,0 l/m 0 min 0 min 0 W/m 16,1 km/h (3 Bft) 95,74 %
17.12.2018 06:16 2,4 C 1,7 C 1,1 C 97 % 1012,6 hPa 0,0 l/m 0 min 0 min 0 W/m 9,7 km/h (2 Bft) 100,00 %
17.12.2018 06:18 2,4 C 1,7 C 1,1 C 97 % 1012,5 hPa 0,0 l/m 0 min 0 min 0 W/m 22,5 km/h (4 Bft) 93,62 %
17.12.2018 06:20 2,4 C 1,7 C 1,1 C 97 % 1012,6 hPa 0,0 l/m 0 min 0 min 0 W/m 9,7 km/h (2 Bft) 93,62 %
17.12.2018 06:22 2,4 C 1,7 C 1,1 C 97 % 1012,7 hPa 0,0 l/m 0 min 0 min 0 W/m 9,7 km/h (2 Bft) 94,34 %
17.12.2018 06:24 2,4 C 1,7 C 1,1 C 97 % 1012,6 hPa 0,0 l/m 0 min 0 min 0 W/m 12,9 km/h (3 Bft) 95,74 %
17.12.2018 06:26 2,4 C 1,7 C 1,1 C 97 % 1012,6 hPa 0,0 l/m 0 min 0 min 0 W/m 16,1 km/h (3 Bft) 96,00 %
17.12.2018 06:28 2,4 C 1,7 C 1,1 C 97 % 1012,6 hPa 0,0 l/m 0 min 0 min 0 W/m 9,7 km/h (2 Bft) 94,74 %
17.12.2018 06:30 2,4 C 1,7 C 1,1 C 97 % 1012,6 hPa 0,0 l/m 0 min 0 min 0 W/m 9,7 km/h (2 Bft) 91,67 %
17.12.2018 06:32 2,4 C 1,7 C 1,1 C 97 % 1012,6 hPa 0,0 l/m 0 min 0 min 0 W/m 22,5 km/h (4 Bft) 95,74 %
17.12.2018 06:34 2,4 C 1,7 C 1,1 C 97 % 1012,7 hPa 0,0 l/m 0 min 0 min 0 W/m 16,1 km/h (3 Bft) 93,62 %
17.12.2018 06:36 2,4 C 1,7 C 1,1 C 97 % 1012,7 hPa 0,0 l/m 0 min 2 min 0 W/m 12,9 km/h (3 Bft) 91,49 %
17.12.2018 06:38 2,4 C 1,7 C 1,1 C 97 % 1012,7 hPa 0,0 l/m 0 min 0 min 0 W/m 12,9 km/h (3 Bft) 94,55 %
17.12.2018 06:40 2,4 C 1,7 C 1,1 C 97 % 1012,8 hPa 0,0 l/m 0 min 0 min 0 W/m 12,9 km/h (3 Bft) 89,13 %
17.12.2018 06:42 2,4 C 1,7 C 1,1 C 97 % 1012,8 hPa 0,0 l/m 0 min 0 min 0 W/m 9,7 km/h (2 Bft) 94,74 %
17.12.2018 06:44 2,4 C 1,7 C 1,1 C 97 % 1012,8 hPa 0,0 l/m 0 min 2 min 0 W/m 12,9 km/h (3 Bft) 95,83 %
17.12.2018 06:46 2,4 C 1,7 C 1,1 C 97 % 1012,8 hPa 0,0 l/m 0 min 2 min 0 W/m 9,7 km/h (2 Bft) 95,74 %
17.12.2018 06:48 2,4 C 1,7 C 1,1 C 97 % 1012,9 hPa 0,0 l/m 0 min 2 min 0 W/m 25,7 km/h (4 Bft) 93,48 %
17.12.2018 06:50 2,4 C 1,7 C 1,1 C 97 % 1012,9 hPa 0,0 l/m 0 min 0 min 0 W/m 12,9 km/h (3 Bft) 91,49 %
17.12.2018 06:52 2,4 C 1,7 C 1,1 C 97 % 1012,9 hPa 0,0 l/m 0 min 2 min 0 W/m 16,1 km/h (3 Bft) 91,49 %
17.12.2018 06:54 2,5 C 1,7 C 1,1 C 97 % 1012,9 hPa 0,0 l/m 0 min 2 min 0 W/m 19,3 km/h (3 Bft) 95,74 %
17.12.2018 06:56 2,5 C 2,2 C 1,1 C 97 % 1012,9 hPa 0,2 l/m 0 min 2 min 0 W/m 25,7 km/h (4 Bft) 98,18 %
17.12.2018 06:58 2,5 C 2,2 C 1,1 C 97 % 1013,0 hPa 0,0 l/m 0 min 2 min 0 W/m 22,5 km/h (4 Bft) 95,74 %
17.12.2018 07:00 2,6 C 2,2 C 1,1 C 97 % 1013,0 hPa 0,0 l/m 0 min 2 min 0 W/m 16,1 km/h (3 Bft) 92,11 %
17.12.2018 07:02 2,6 C 2,2 C 1,1 C 97 % 1013,0 hPa 0,0 l/m 0 min 2 min 0 W/m 16,1 km/h (3 Bft) 97,87 %
17.12.2018 07:04 2,6 C 2,2 C 1,1 C 97 % 1013,0 hPa 0,0 l/m 0 min 2 min 0 W/m 19,3 km/h (3 Bft) 100,00 %
17.12.2018 07:06 2,6 C 2,2 C 1,7 C 97 % 1013,0 hPa 0,0 l/m 0 min 2 min 0 W/m 25,7 km/h (4 Bft) 100,00 %
17.12.2018 07:08 2,6 C 2,2 C 1,7 C 97 % 1013,0 hPa 0,2 l/m 0 min 2 min 0 W/m 22,5 km/h (4 Bft) 96,36 %
17.12.2018 07:10 2,6 C 2,2 C 1,7 C 97 % 1013,0 hPa 0,0 l/m 0 min 2 min 0 W/m 25,7 km/h (4 Bft) 97,87 %
17.12.2018 07:12 2,6 C 2,2 C 1,7 C 97 % 1013,0 hPa 0,2 l/m 0 min 2 min 0 W/m 19,3 km/h (3 Bft) 97,37 %
17.12.2018 07:14 2,6 C 2,2 C 1,7 C 97 % 1013,1 hPa 0,0 l/m 0 min 2 min 0 W/m 16,1 km/h (3 Bft) 97,87 %
17.12.2018 07:16 2,7 C 2,2 C 1,7 C 97 % 1013,1 hPa 0,0 l/m 0 min 2 min 0 W/m 19,3 km/h (3 Bft) 97,87 %
17.12.2018 07:18 2,7 C 2,2 C 1,7 C 97 % 1013,1 hPa 0,2 l/m 0 min 2 min 0 W/m 16,1 km/h (3 Bft) 95,74 %
17.12.2018 07:20 2,7 C 2,2 C 1,7 C 97 % 1013,1 hPa 0,0 l/m 0 min 2 min 0 W/m 25,7 km/h (4 Bft) 97,87 %
17.12.2018 07:22 2,7 C 2,2 C 1,7 C 97 % 1013,1 hPa 0,0 l/m 0 min 2 min 0 W/m 25,7 km/h (4 Bft) 97,87 %
17.12.2018 07:24 2,7 C 2,2 C 1,7 C 97 % 1013,1 hPa 0,0 l/m 0 min 2 min 0 W/m 22,5 km/h (4 Bft) 97,83 %
17.12.2018 07:26 2,7 C 2,2 C 1,7 C 97 % 1013,1 hPa 0,2 l/m 0 min 2 min 0 W/m 22,5 km/h (4 Bft) 95,74 %
17.12.2018 07:28 2,7 C 2,2 C 1,7 C 97 % 1013,1 hPa 0,0 l/m 0 min 2 min 0 W/m 25,7 km/h (4 Bft) 97,87 %
17.12.2018 07:30 2,7 C 2,2 C 1,7 C 97 % 1013,1 hPa 0,0 l/m 0 min 2 min 0 W/m 22,5 km/h (4 Bft) 97,87 %
17.12.2018 07:32 2,7 C 2,2 C 1,7 C 97 % 1013,2 hPa 0,0 l/m 0 min 2 min 0 W/m 22,5 km/h (4 Bft) 94,55 %
17.12.2018 07:34 2,8 C 2,2 C 1,7 C 97 % 1013,1 hPa 0,0 l/m 0 min 2 min 0 W/m 22,5 km/h (4 Bft) 97,37 %
17.12.2018 07:36 2,8 C 2,2 C 1,7 C 97 % 1013,2 hPa 0,0 l/m 0 min 2 min 0 W/m 25,7 km/h (4 Bft) 97,87 %
17.12.2018 07:38 2,8 C 2,2 C 1,7 C 97 % 1013,2 hPa 0,2 l/m 0 min 2 min 0 W/m 29,0 km/h (5 Bft) 93,62 %
17.12.2018 07:40 2,8 C 2,2 C 1,7 C 97 % 1013,2 hPa 0,0 l/m 0 min 2 min 0 W/m 19,3 km/h (3 Bft) 91,49 %
17.12.2018 07:42 2,8 C 2,2 C 1,7 C 97 % 1013,2 hPa 0,0 l/m 0 min 2 min 0 W/m 12,9 km/h (3 Bft) 95,74 %
17.12.2018 07:44 2,8 C 2,2 C 1,7 C 97 % 1013,2 hPa 0,0 l/m 0 min 2 min 0 W/m 19,3 km/h (3 Bft) 97,87 %
17.12.2018 07:46 2,8 C 2,2 C 1,7 C 97 % 1013,2 hPa 0,0 l/m 0 min 2 min 0 W/m 22,5 km/h (4 Bft) 97,87 %
17.12.2018 07:48 2,8 C 2,2 C 1,7 C 97 % 1013,3 hPa 0,2 l/m 0 min 2 min 0 W/m 16,1 km/h (3 Bft) 97,83 %
17.12.2018 07:50 2,8 C 2,2 C 1,7 C 97 % 1013,2 hPa 0,0 l/m 0 min 2 min 0 W/m 16,1 km/h (3 Bft) 98,18 %
17.12.2018 07:52 2,8 C 2,2 C 1,7 C 97 % 1013,3 hPa 0,0 l/m 0 min 2 min 0 W/m 16,1 km/h (3 Bft) 95,74 %
17.12.2018 07:54 2,9 C 2,2 C 1,7 C 97 % 1013,3 hPa 0,0 l/m 0 min 2 min 0 W/m 22,5 km/h (4 Bft) 97,37 %
17.12.2018 07:56 2,9 C 2,2 C 1,7 C 97 % 1013,4 hPa 0,0 l/m 0 min 2 min 0 W/m 16,1 km/h (3 Bft) 98,00 %
17.12.2018 07:58 2,9 C 2,2 C 1,7 C 97 % 1013,3 hPa 0,0 l/m 0 min 2 min 0 W/m 9,7 km/h (2 Bft) 97,83 %
17.12.2018 08:00 2,9 C 2,2 C 1,7 C 97 % 1013,4 hPa 0,0 l/m 0 min 2 min 0 W/m 12,9 km/h (3 Bft) 100,00 %
17.12.2018 08:02 2,9 C 2,2 C 1,7 C 97 % 1013,4 hPa 0,2 l/m 0 min 2 min 0 W/m 16,1 km/h (3 Bft) 97,87 %
17.12.2018 08:04 2,9 C 2,2 C 1,7 C 97 % 1013,4 hPa 0,0 l/m 0 min 2 min 0 W/m 16,1 km/h (3 Bft) 95,74 %
17.12.2018 08:06 2,9 C 2,2 C 1,7 C 97 % 1013,5 hPa 0,0 l/m 0 min 2 min 0 W/m 19,3 km/h (3 Bft) 100,00 %
17.12.2018 08:08 2,9 C 2,2 C 1,7 C 97 % 1013,5 hPa 0,0 l/m 0 min 2 min 0 W/m 12,9 km/h (3 Bft) 100,00 %
17.12.2018 08:10 2,9 C 2,2 C 1,7 C 97 % 1013,6 hPa 0,0 l/m 0 min 2 min 0 W/m 16,1 km/h (3 Bft) 100,00 %
17.12.2018 08:12 2,9 C 2,2 C 1,7 C 97 % 1013,6 hPa 0,0 l/m 0 min 2 min 0 W/m 16,1 km/h (3 Bft) 93,62 %
17.12.2018 08:14 2,9 C 2,2 C 1,7 C 97 % 1013,6 hPa 0,2 l/m 0 min 2 min 0 W/m 12,9 km/h (3 Bft) 100,00 %
17.12.2018 08:16 2,9 C 2,2 C 1,7 C 97 % 1013,6 hPa 0,0 l/m 0 min 2 min 0 W/m 16,1 km/h (3 Bft) 97,83 %
17.12.2018 08:18 2,9 C 2,2 C 1,7 C 97 % 1013,7 hPa 0,0 l/m 0 min 2 min 0 W/m 16,1 km/h (3 Bft) 100,00 %
17.12.2018 08:20 2,9 C 2,2 C 1,7 C 97 % 1013,6 hPa 0,0 l/m 0 min 2 min 0 W/m 9,7 km/h (2 Bft) 100,00 %
17.12.2018 08:22 2,9 C 2,2 C 1,7 C 97 % 1013,7 hPa 0,0 l/m 0 min 2 min 0 W/m 16,1 km/h (3 Bft) 97,87 %
17.12.2018 08:24 3,0 C 2,2 C 1,7 C 97 % 1013,7 hPa 0,0 l/m 0 min 2 min 0 W/m 19,3 km/h (3 Bft) 100,00 %
17.12.2018 08:26 3,0 C 2,2 C 1,7 C 97 % 1013,7 hPa 0,0 l/m 0 min 2 min 0 W/m 12,9 km/h (3 Bft) 100,00 %
17.12.2018 08:28 3,0 C 2,2 C 1,7 C 97 % 1013,8 hPa 0,0 l/m 0 min 2 min 0 W/m 16,1 km/h (3 Bft) 97,83 %
17.12.2018 08:30 3,0 C 2,2 C 1,7 C 97 % 1013,8 hPa 0,0 l/m 0 min 2 min 0 W/m 12,9 km/h (3 Bft) 100,00 %
17.12.2018 08:32 3,0 C 2,2 C 1,7 C 97 % 1013,8 hPa 0,0 l/m 0 min 2 min 0 W/m 12,9 km/h (3 Bft) 95,92 %
17.12.2018 08:34 3,0 C 2,2 C 1,7 C 97 % 1013,8 hPa 0,0 l/m 0 min 2 min 0 W/m 12,9 km/h (3 Bft) 100,00 %
17.12.2018 08:36 3,0 C 2,2 C 1,7 C 97 % 1013,8 hPa 0,0 l/m 0 min 2 min 0 W/m 12,9 km/h (3 Bft) 100,00 %
17.12.2018 08:38 3,0 C 2,2 C 1,7 C 97 % 1013,8 hPa 0,0 l/m 0 min 2 min 0 W/m 12,9 km/h (3 Bft) 100,00 %
17.12.2018 08:40 3,1 C 2,2 C 1,7 C 97 % 1013,9 hPa 0,2 l/m 0 min 0 min 0 W/m 16,1 km/h (3 Bft) 100,00 %
17.12.2018 08:42 3,1 C 2,2 C 1,7 C 97 % 1013,9 hPa 0,0 l/m 0 min 0 min 0 W/m 12,9 km/h (3 Bft) 100,00 %
17.12.2018 08:44 3,1 C 2,2 C 1,7 C 97 % 1013,9 hPa 0,0 l/m 0 min 2 min 0 W/m 16,1 km/h (3 Bft) 100,00 %
17.12.2018 08:46 3,1 C 2,2 C 1,7 C 97 % 1013,9 hPa 0,0 l/m 0 min 2 min 0 W/m 19,3 km/h (3 Bft) 100,00 %
17.12.2018 08:48 3,1 C 2,8 C 1,7 C 97 % 1013,9 hPa 0,0 l/m 0 min 2 min 0 W/m 12,9 km/h (3 Bft) 100,00 %
17.12.2018 08:50 3,1 C 2,8 C 1,7 C 97 % 1013,9 hPa 0,0 l/m 0 min 2 min 0 W/m 12,9 km/h (3 Bft) 100,00 %
17.12.2018 08:52 3,1 C 2,8 C 1,7 C 97 % 1013,9 hPa 0,0 l/m 0 min 2 min 2 W/m 16,1 km/h (3 Bft) 97,87 %
17.12.2018 08:54 3,1 C 2,8 C 2,2 C 97 % 1014,0 hPa 0,0 l/m 0 min 2 min 5 W/m 22,5 km/h (4 Bft) 97,87 %
17.12.2018 08:56 3,1 C 2,8 C 2,2 C 97 % 1013,9 hPa 0,0 l/m 0 min 2 min 7 W/m 16,1 km/h (3 Bft) 93,48 %
17.12.2018 08:58 3,1 C 2,8 C 2,2 C 97 % 1014,1 hPa 0,0 l/m 0 min 2 min 8 W/m 12,9 km/h (3 Bft) 97,87 %
17.12.2018 09:00 3,2 C 2,8 C 2,2 C 97 % 1014,0 hPa 0,0 l/m 0 min 0 min 9 W/m 12,9 km/h (3 Bft) 95,74 %
17.12.2018 09:02 3,2 C 2,8 C 2,2 C 97 % 1014,0 hPa 0,0 l/m 0 min 0 min 10 W/m 9,7 km/h (2 Bft) 97,87 %
17.12.2018 09:04 3,2 C 2,8 C 2,2 C 97 % 1014,0 hPa 0,0 l/m 0 min 0 min 11 W/m 12,9 km/h (3 Bft) 97,87 %
17.12.2018 09:06 3,2 C 2,8 C 2,2 C 97 % 1014,1 hPa 0,0 l/m 0 min 0 min 11 W/m 12,9 km/h (3 Bft) 91,49 %
17.12.2018 09:08 3,2 C 2,8 C 2,2 C 97 % 1014,2 hPa 0,0 l/m 0 min 0 min 11 W/m 12,9 km/h (3 Bft) 95,65 %
17.12.2018 09:10 3,2 C 2,8 C 2,2 C 97 % 1014,2 hPa 0,0 l/m 0 min 0 min 11 W/m 12,9 km/h (3 Bft) 97,87 %
17.12.2018 09:12 3,2 C 2,8 C 2,2 C 97 % 1014,3 hPa 0,0 l/m 0 min 0 min 8 W/m 9,7 km/h (2 Bft) 100,00 %
17.12.2018 09:14 3,2 C 2,8 C 2,2 C 97 % 1014,3 hPa 0,0 l/m 0 min 0 min 7 W/m 16,1 km/h (3 Bft) 91,49 %
17.12.2018 09:16 3,2 C 2,8 C 2,2 C 97 % 1014,3 hPa 0,0 l/m 0 min 0 min 7 W/m 16,1 km/h (3 Bft) 94,44 %
17.12.2018 09:18 3,2 C 2,8 C 2,2 C 97 % 1014,3 hPa 0,0 l/m 0 min 0 min 7 W/m 16,1 km/h (3 Bft) 95,74 %
17.12.2018 09:20 3,2 C 2,8 C 2,2 C 97 % 1014,3 hPa 0,0 l/m 0 min 0 min 5 W/m 6,4 km/h (2 Bft) 94,00 %
17.12.2018 09:22 3,2 C 2,8 C 2,2 C 97 % 1014,4 hPa 0,0 l/m 0 min 0 min 5 W/m 9,7 km/h (2 Bft) 95,74 %
17.12.2018 09:24 3,3 C 2,8 C 2,2 C 97 % 1014,3 hPa 0,0 l/m 0 min 0 min 7 W/m 12,9 km/h (3 Bft) 95,65 %
17.12.2018 09:26 3,3 C 2,8 C 2,2 C 97 % 1014,3 hPa 0,0 l/m 0 min 0 min 9 W/m 12,9 km/h (3 Bft) 93,88 %
17.12.2018 09:28 3,3 C 2,8 C 2,2 C 97 % 1014,4 hPa 0,0 l/m 0 min 0 min 10 W/m 12,9 km/h (3 Bft) 95,74 %
17.12.2018 09:30 3,3 C 2,8 C 2,2 C 97 % 1014,4 hPa 0,0 l/m 0 min 0 min 12 W/m 12,9 km/h (3 Bft) 95,65 %
17.12.2018 09:32 3,3 C 2,8 C 2,2 C 97 % 1014,5 hPa 0,0 l/m 0 min 0 min 13 W/m 12,9 km/h (3 Bft) 95,74 %
17.12.2018 09:34 3,3 C 2,8 C 2,2 C 97 % 1014,5 hPa 0,0 l/m 0 min 0 min 16 W/m 9,7 km/h (2 Bft) 94,29 %
17.12.2018 09:36 3,4 C 2,8 C 2,2 C 98 % 1014,6 hPa 0,0 l/m 0 min 0 min 18 W/m 22,5 km/h (4 Bft) 96,61 %
17.12.2018 09:38 3,4 C 2,8 C 2,2 C 98 % 1014,6 hPa 0,0 l/m 0 min 0 min 18 W/m 12,9 km/h (3 Bft) 97,14 %
17.12.2018 09:40 3,4 C 3,3 C 2,2 C 98 % 1014,7 hPa 0,0 l/m 0 min 0 min 18 W/m 12,9 km/h (3 Bft) 95,74 %
17.12.2018 09:42 3,4 C 3,3 C 2,2 C 98 % 1014,7 hPa 0,0 l/m 0 min 0 min 19 W/m 9,7 km/h (2 Bft) 95,74 %
17.12.2018 09:44 3,5 C 3,3 C 2,2 C 98 % 1014,8 hPa 0,0 l/m 0 min 0 min 19 W/m 16,1 km/h (3 Bft) 94,44 %
17.12.2018 09:46 3,5 C 3,3 C 2,2 C 98 % 1014,7 hPa 0,0 l/m 0 min 0 min 22 W/m 12,9 km/h (3 Bft) 94,00 %
17.12.2018 09:48 3,6 C 3,3 C 2,8 C 98 % 1014,7 hPa 0,0 l/m 0 min 0 min 22 W/m 12,9 km/h (3 Bft) 95,65 %
17.12.2018 09:50 3,6 C 3,3 C 2,8 C 98 % 1014,7 hPa 0,0 l/m 0 min 0 min 19 W/m 12,9 km/h (3 Bft) 95,92 %
17.12.2018 09:52 3,6 C 3,3 C 2,8 C 98 % 1014,7 hPa 0,0 l/m 0 min 0 min 18 W/m 9,7 km/h (2 Bft) 100,00 %
17.12.2018 09:54 3,6 C 3,3 C 2,8 C 98 % 1014,7 hPa 0,0 l/m 0 min 0 min 16 W/m 12,9 km/h (3 Bft) 95,74 %
17.12.2018 09:56 3,6 C 3,3 C 2,8 C 98 % 1014,7 hPa 0,0 l/m 0 min 0 min 15 W/m 9,7 km/h (2 Bft) 93,62 %
17.12.2018 09:58 3,6 C 3,3 C 2,8 C 98 % 1014,7 hPa 0,0 l/m 0 min 0 min 13 W/m 9,7 km/h (2 Bft) 95,65 %
17.12.2018 10:00 3,7 C 3,3 C 2,8 C 98 % 1014,7 hPa 0,0 l/m 0 min 0 min 18 W/m 12,9 km/h (3 Bft) 91,49 %
17.12.2018 10:02 3,7 C 3,3 C 2,8 C 98 % 1014,8 hPa 0,0 l/m 0 min 0 min 28 W/m 9,7 km/h (2 Bft) 96,30 %
17.12.2018 10:04 3,7 C 3,3 C 2,8 C 98 % 1014,8 hPa 0,0 l/m 0 min 0 min 36 W/m 6,4 km/h (2 Bft) 96,00 %
17.12.2018 10:06 3,7 C 3,3 C 2,8 C 98 % 1014,8 hPa 0,0 l/m 0 min 0 min 41 W/m 9,7 km/h (2 Bft) 93,62 %
17.12.2018 10:08 3,7 C 3,3 C 2,8 C 98 % 1014,8 hPa 0,0 l/m 0 min 0 min 41 W/m 6,4 km/h (2 Bft) 93,62 %
17.12.2018 10:10 3,8 C 3,3 C 2,8 C 98 % 1014,8 hPa 0,0 l/m 0 min 0 min 41 W/m 9,7 km/h (2 Bft) 97,87 %
17.12.2018 10:12 3,8 C 3,9 C 2,8 C 98 % 1014,9 hPa 0,0 l/m 0 min 0 min 42 W/m 6,4 km/h (2 Bft) 97,83 %
17.12.2018 10:14 3,8 C 3,9 C 2,8 C 98 % 1014,9 hPa 0,0 l/m 0 min 0 min 33 W/m 12,9 km/h (3 Bft) 93,88 %
17.12.2018 10:16 3,9 C 3,9 C 2,8 C 98 % 1014,8 hPa 0,0 l/m 0 min 0 min 20 W/m 16,1 km/h (3 Bft) 97,87 %
17.12.2018 10:18 3,9 C 3,3 C 2,8 C 98 % 1014,9 hPa 0,0 l/m 0 min 2 min 14 W/m 9,7 km/h (2 Bft) 94,29 %
17.12.2018 10:20 3,9 C 3,3 C 2,8 C 98 % 1014,9 hPa 0,0 l/m 0 min 0 min 10 W/m 9,7 km/h (2 Bft) 98,15 %
17.12.2018 10:22 3,9 C 3,3 C 2,8 C 98 % 1015,0 hPa 0,0 l/m 0 min 0 min 9 W/m 12,9 km/h (3 Bft) 97,87 %
17.12.2018 10:24 4,0 C 3,3 C 2,8 C 98 % 1015,0 hPa 0,0 l/m 0 min 0 min 11 W/m 9,7 km/h (2 Bft) 95,92 %
17.12.2018 10:26 4,0 C 3,9 C 2,8 C 98 % 1015,0 hPa 0,0 l/m 0 min 0 min 15 W/m 9,7 km/h (2 Bft) 97,87 %
17.12.2018 10:28 4,0 C 3,9 C 2,8 C 98 % 1015,0 hPa 0,0 l/m 0 min 0 min 16 W/m 9,7 km/h (2 Bft) 97,87 %
17.12.2018 10:30 4,1 C 3,9 C 2,8 C 98 % 1015,0 hPa 0,0 l/m 0 min 0 min 15 W/m 9,7 km/h (2 Bft) 97,87 %
17.12.2018 10:32 4,1 C 3,9 C 3,3 C 98 % 1015,1 hPa 0,0 l/m 0 min 0 min 21 W/m 9,7 km/h (2 Bft) 93,62 %
17.12.2018 10:34 4,1 C 3,9 C 3,3 C 98 % 1015,1 hPa 0,0 l/m 0 min 2 min 44 W/m 9,7 km/h (2 Bft) 97,83 %
17.12.2018 10:36 4,2 C 3,9 C 3,3 C 98 % 1015,1 hPa 0,2 l/m 0 min 2 min 45 W/m 16,1 km/h (3 Bft) 91,84 %
17.12.2018 10:38 4,2 C 3,9 C 3,3 C 98 % 1015,2 hPa 0,0 l/m 0 min 2 min 41 W/m 12,9 km/h (3 Bft) 91,49 %
17.12.2018 10:40 4,2 C 3,9 C 3,3 C 98 % 1015,2 hPa 0,0 l/m 0 min 2 min 33 W/m 12,9 km/h (3 Bft) 100,00 %
17.12.2018 10:42 4,2 C 3,9 C 3,3 C 98 % 1015,2 hPa 0,0 l/m 0 min 2 min 36 W/m 12,9 km/h (3 Bft) 97,83 %
17.12.2018 10:44 4,3 C 3,9 C 3,3 C 98 % 1015,2 hPa 0,0 l/m 0 min 2 min 34 W/m 9,7 km/h (2 Bft) 100,00 %
17.12.2018 10:46 4,3 C 3,9 C 3,3 C 98 % 1015,2 hPa 0,2 l/m 0 min 2 min 29 W/m 9,7 km/h (2 Bft) 100,00 %
17.12.2018 10:48 4,3 C 3,9 C 3,3 C 98 % 1015,3 hPa 0,0 l/m 0 min 2 min 33 W/m 6,4 km/h (2 Bft) 100,00 %
17.12.2018 10:50 4,3 C 3,9 C 3,3 C 98 % 1015,4 hPa 0,0 l/m 0 min 2 min 34 W/m 9,7 km/h (2 Bft) 98,15 %
17.12.2018 10:52 4,4 C 3,9 C 3,3 C 98 % 1015,3 hPa 0,0 l/m 0 min 2 min 30 W/m 12,9 km/h (3 Bft) 100,00 %
17.12.2018 10:54 4,4 C 3,9 C 3,3 C 98 % 1015,4 hPa 0,0 l/m 0 min 2 min 31 W/m 6,4 km/h (2 Bft) 97,92 %
17.12.2018 10:56 4,4 C 3,9 C 3,3 C 98 % 1015,4 hPa 0,0 l/m 0 min 2 min 34 W/m 9,7 km/h (2 Bft) 97,14 %
17.12.2018 10:58 4,4 C 4,4 C 3,3 C 98 % 1015,4 hPa 0,0 l/m 0 min 0 min 39 W/m 9,7 km/h (2 Bft) 100,00 %
17.12.2018 11:00 4,5 C 4,4 C 3,3 C 98 % 1015,4 hPa 0,0 l/m 0 min 0 min 42 W/m 9,7 km/h (2 Bft) 100,00 %
17.12.2018 11:02 4,6 C 4,4 C 3,9 C 98 % 1015,4 hPa 0,0 l/m 0 min 0 min 50 W/m 9,7 km/h (2 Bft) 100,00 %
17.12.2018 11:04 4,6 C 4,4 C 3,9 C 98 % 1015,5 hPa 0,0 l/m 0 min 2 min 66 W/m 16,1 km/h (3 Bft) 100,00 %
17.12.2018 11:06 4,7 C 4,4 C 3,9 C 98 % 1015,4 hPa 0,0 l/m 0 min 0 min 78 W/m 12,9 km/h (3 Bft) 97,87 %
17.12.2018 11:08 4,7 C 5,0 C 3,9 C 98 % 1015,4 hPa 0,0 l/m 0 min 0 min 75 W/m 12,9 km/h (3 Bft) 97,14 %
17.12.2018 11:10 4,8 C 5,0 C 3,9 C 98 % 1015,4 hPa 0,0 l/m 0 min 0 min 74 W/m 9,7 km/h (2 Bft) 100,00 %
17.12.2018 11:12 4,8 C 5,0 C 4,4 C 98 % 1015,4 hPa 0,0 l/m 0 min 0 min 78 W/m 22,5 km/h (4 Bft) 100,00 %
17.12.2018 11:14 4,9 C 5,0 C 4,4 C 98 % 1015,4 hPa 0,0 l/m 0 min 0 min 76 W/m 19,3 km/h (3 Bft) 100,00 %
17.12.2018 11:16 5,0 C 5,0 C 4,4 C 98 % 1015,4 hPa 0,0 l/m 0 min 0 min 75 W/m 19,3 km/h (3 Bft) 100,00 %
17.12.2018 11:18 5,1 C 5,0 C 4,4 C 98 % 1015,4 hPa 0,0 l/m 0 min 0 min 75 W/m 12,9 km/h (3 Bft) 100,00 %
17.12.2018 11:20 5,2 C 5,6 C 4,4 C 98 % 1015,4 hPa 0,0 l/m 0 min 0 min 86 W/m 16,1 km/h (3 Bft) 100,00 %
17.12.2018 11:22 5,2 C 5,6 C 4,4 C 98 % 1015,4 hPa 0,0 l/m 0 min 0 min 108 W/m 19,3 km/h (3 Bft) 100,00 %
17.12.2018 11:24 5,3 C 5,6 C 4,4 C 98 % 1015,4 hPa 0,0 l/m 0 min 0 min 100 W/m 16,1 km/h (3 Bft) 97,87 %
17.12.2018 11:26 5,4 C 6,1 C 5,0 C 98 % 1015,4 hPa 0,0 l/m 0 min 0 min 126 W/m 12,9 km/h (3 Bft) 95,74 %
17.12.2018 11:28 5,5 C 5,6 C 5,0 C 98 % 1015,4 hPa 0,0 l/m 0 min 0 min 114 W/m 16,1 km/h (3 Bft) 96,30 %
17.12.2018 11:30 5,6 C 5,6 C 5,0 C 99 % 1015,4 hPa 0,0 l/m 0 min 0 min 95 W/m 19,3 km/h (3 Bft) 96,00 %
17.12.2018 11:32 5,7 C 5,6 C 5,0 C 99 % 1015,4 hPa 0,0 l/m 0 min 0 min 81 W/m 9,7 km/h (2 Bft) 97,92 %
17.12.2018 11:34 5,7 C 5,6 C 5,0 C 98 % 1015,4 hPa 0,0 l/m 0 min 0 min 93 W/m 12,9 km/h (3 Bft) 97,14 %
17.12.2018 11:36 5,8 C 6,1 C 5,0 C 98 % 1015,4 hPa 0,0 l/m 0 min 0 min 103 W/m 19,3 km/h (3 Bft) 98,15 %
17.12.2018 11:38 5,9 C 6,1 C 5,0 C 98 % 1015,4 hPa 0,0 l/m 0 min 0 min 108 W/m 29,0 km/h (5 Bft) 97,87 %
17.12.2018 11:40 5,9 C 6,1 C 5,0 C 99 % 1015,4 hPa 0,0 l/m 0 min 0 min 125 W/m 9,7 km/h (2 Bft) 95,74 %
17.12.2018 11:42 5,9 C 6,1 C 5,0 C 99 % 1015,4 hPa 0,0 l/m 0 min 0 min 120 W/m 16,1 km/h (3 Bft) 98,00 %
17.12.2018 11:44 6,0 C 6,1 C 5,0 C 99 % 1015,4 hPa 0,0 l/m 0 min 0 min 120 W/m 16,1 km/h (3 Bft) 95,83 %
17.12.2018 11:46 6,1 C 6,7 C 5,6 C 99 % 1015,4 hPa 0,0 l/m 0 min 0 min 134 W/m 12,9 km/h (3 Bft) 97,87 %
17.12.2018 11:48 6,1 C 6,7 C 5,6 C 99 % 1015,4 hPa 0,0 l/m 2 min 0 min 166 W/m 16,1 km/h (3 Bft) 97,87 %
17.12.2018 11:50 6,2 C 7,2 C 5,6 C 99 % 1015,4 hPa 0,0 l/m 2 min 0 min 145 W/m 22,5 km/h (4 Bft) 97,87 %
17.12.2018 11:52 6,3 C 7,2 C 5,6 C 99 % 1015,4 hPa 0,0 l/m 2 min 0 min 187 W/m 19,3 km/h (3 Bft) 97,14 %
17.12.2018 11:54 6,3 C 6,7 C 5,6 C 99 % 1015,3 hPa 0,0 l/m 0 min 0 min 95 W/m 25,7 km/h (4 Bft) 97,83 %
17.12.2018 11:56 6,3 C 6,7 C 5,6 C 99 % 1015,4 hPa 0,0 l/m 0 min 0 min 86 W/m 16,1 km/h (3 Bft) 97,87 %
17.12.2018 11:58 6,4 C 6,7 C 5,6 C 99 % 1015,4 hPa 0,0 l/m 0 min 0 min 98 W/m 16,1 km/h (3 Bft) 97,87 %
17.12.2018 12:00 6,4 C 7,2 C 5,6 C 99 % 1015,5 hPa 0,0 l/m 2 min 0 min 210 W/m 16,1 km/h (3 Bft) 98,15 %
17.12.2018 12:02 6,4 C 7,2 C 5,6 C 99 % 1015,6 hPa 0,0 l/m 2 min 0 min 254 W/m 12,9 km/h (3 Bft) 97,87 %
17.12.2018 12:04 6,5 C 6,7 C 5,6 C 99 % 1015,5 hPa 0,0 l/m 0 min 0 min 62 W/m 16,1 km/h (3 Bft) 96,00 %
17.12.2018 12:08 6,6 C 6,1 C 5,6 C 99 % 1015,5 hPa 0,0 l/m 0 min 0 min 57 W/m 22,5 km/h (4 Bft) 100,00 %
17.12.2018 12:10 6,6 C 6,1 C 5,6 C 99 % 1015,6 hPa 0,0 l/m 0 min 0 min 73 W/m 12,9 km/h (3 Bft) 100,00 %
17.12.2018 12:12 6,6 C 6,1 C 5,6 C 99 % 1015,6 hPa 0,0 l/m 0 min 0 min 74 W/m 9,7 km/h (2 Bft) 100,00 %
17.12.2018 12:14 6,6 C 6,1 C 5,6 C 99 % 1015,7 hPa 0,0 l/m 0 min 2 min 69 W/m 19,3 km/h (3 Bft) 97,83 %
17.12.2018 12:16 6,6 C 6,1 C 5,6 C 99 % 1015,7 hPa 0,0 l/m 0 min 2 min 63 W/m 16,1 km/h (3 Bft) 100,00 %
17.12.2018 12:18 6,6 C 6,1 C 5,6 C 99 % 1015,7 hPa 0,0 l/m 0 min 2 min 67 W/m 22,5 km/h (4 Bft) 100,00 %
17.12.2018 12:20 6,6 C 6,1 C 5,6 C 99 % 1015,7 hPa 0,0 l/m 0 min 0 min 86 W/m 12,9 km/h (3 Bft) 100,00 %
17.12.2018 12:22 6,6 C 6,1 C 5,6 C 99 % 1015,6 hPa 0,0 l/m 0 min 2 min 97 W/m 16,1 km/h (3 Bft) 97,87 %
17.12.2018 12:24 6,6 C 6,1 C 5,6 C 99 % 1015,6 hPa 0,0 l/m 0 min 0 min 92 W/m 12,9 km/h (3 Bft) 97,87 %
17.12.2018 12:26 6,6 C 6,1 C 5,6 C 99 % 1015,7 hPa 0,0 l/m 0 min 2 min 58 W/m 19,3 km/h (3 Bft) 97,83 %
17.12.2018 12:28 6,7 C 6,1 C 5,6 C 99 % 1015,6 hPa 0,0 l/m 0 min 2 min 44 W/m 16,1 km/h (3 Bft) 100,00 %
17.12.2018 12:30 6,7 C 6,1 C 5,6 C 98 % 1015,6 hPa 0,0 l/m 0 min 2 min 55 W/m 16,1 km/h (3 Bft) 96,23 %
17.12.2018 12:32 6,7 C 6,1 C 5,6 C 98 % 1015,6 hPa 0,0 l/m 0 min 2 min 52 W/m 22,5 km/h (4 Bft) 95,92 %
17.12.2018 12:34 6,7 C 6,1 C 5,6 C 98 % 1015,6 hPa 0,0 l/m 0 min 2 min 55 W/m 9,7 km/h (2 Bft) 95,74 %
17.12.2018 12:36 6,7 C 6,1 C 5,6 C 98 % 1015,6 hPa 0,0 l/m 0 min 2 min 65 W/m 16,1 km/h (3 Bft) 98,00 %
17.12.2018 12:38 6,7 C 6,1 C 5,6 C 98 % 1015,6 hPa 0,0 l/m 0 min 2 min 66 W/m 12,9 km/h (3 Bft) 97,83 %
17.12.2018 12:40 6,7 C 6,1 C 5,6 C 98 % 1015,7 hPa 0,0 l/m 0 min 2 min 56 W/m 16,1 km/h (3 Bft) 95,74 %
17.12.2018 12:42 6,7 C 6,1 C 5,6 C 98 % 1015,7 hPa 0,0 l/m 0 min 2 min 62 W/m 19,3 km/h (3 Bft) 95,74 %
17.12.2018 12:44 6,6 C 6,1 C 5,6 C 98 % 1015,7 hPa 0,0 l/m 0 min 2 min 49 W/m 12,9 km/h (3 Bft) 94,29 %
17.12.2018 12:46 6,6 C 5,6 C 5,0 C 98 % 1015,7 hPa 0,0 l/m 0 min 2 min 38 W/m 25,7 km/h (4 Bft) 97,87 %
17.12.2018 12:48 6,6 C 5,6 C 5,0 C 98 % 1015,6 hPa 0,0 l/m 0 min 2 min 33 W/m 29,0 km/h (5 Bft) 98,11 %
17.12.2018 12:50 6,6 C 5,6 C 5,0 C 98 % 1015,7 hPa 0,0 l/m 0 min 2 min 42 W/m 22,5 km/h (4 Bft) 97,87 %
17.12.2018 12:52 6,6 C 5,6 C 5,0 C 98 % 1015,7 hPa 0,0 l/m 0 min 2 min 61 W/m 16,1 km/h (3 Bft) 96,00 %
17.12.2018 12:54 6,6 C 5,6 C 5,0 C 98 % 1015,9 hPa 0,0 l/m 0 min 2 min 71 W/m 22,5 km/h (4 Bft) 89,36 %
17.12.2018 12:56 6,6 C 5,6 C 5,0 C 98 % 1015,8 hPa 0,0 l/m 0 min 2 min 52 W/m 16,1 km/h (3 Bft) 91,84 %
17.12.2018 12:58 6,6 C 5,6 C 5,0 C 98 % 1015,8 hPa 0,0 l/m 0 min 2 min 51 W/m 22,5 km/h (4 Bft) 97,14 %
17.12.2018 13:00 6,6 C 5,6 C 5,0 C 98 % 1015,9 hPa 0,0 l/m 0 min 2 min 57 W/m 12,9 km/h (3 Bft) 95,74 %
17.12.2018 13:02 6,6 C 5,6 C 5,0 C 98 % 1015,8 hPa 0,0 l/m 0 min 2 min 55 W/m 16,1 km/h (3 Bft) 93,62 %
17.12.2018 13:04 6,6 C 5,6 C 5,0 C 98 % 1015,8 hPa 0,0 l/m 0 min 2 min 50 W/m 12,9 km/h (3 Bft) 92,45 %
17.12.2018 13:06 6,6 C 5,6 C 5,0 C 98 % 1015,9 hPa 0,0 l/m 0 min 2 min 61 W/m 16,1 km/h (3 Bft) 95,92 %
17.12.2018 13:08 6,6 C 5,6 C 5,0 C 98 % 1015,9 hPa 0,0 l/m 0 min 2 min 45 W/m 16,1 km/h (3 Bft) 95,74 %
17.12.2018 13:10 6,6 C 5,6 C 5,0 C 98 % 1015,9 hPa 0,0 l/m 0 min 2 min 39 W/m 16,1 km/h (3 Bft) 93,62 %
17.12.2018 13:12 6,6 C 5,6 C 5,0 C 98 % 1016,1 hPa 0,0 l/m 0 min 0 min 45 W/m 16,1 km/h (3 Bft) 93,88 %
17.12.2018 13:14 6,6 C 5,6 C 5,0 C 97 % 1016,1 hPa 0,0 l/m 0 min 0 min 64 W/m 16,1 km/h (3 Bft) 97,22 %
17.12.2018 13:16 6,6 C 5,6 C 5,0 C 97 % 1016,2 hPa 0,0 l/m 0 min 0 min 70 W/m 16,1 km/h (3 Bft) 96,23 %
17.12.2018 13:18 6,6 C 6,1 C 5,0 C 97 % 1016,1 hPa 0,0 l/m 0 min 2 min 109 W/m 12,9 km/h (3 Bft) 95,74 %
17.12.2018 13:20 6,6 C 6,1 C 5,6 C 97 % 1016,1 hPa 0,0 l/m 0 min 2 min 136 W/m 12,9 km/h (3 Bft) 97,96 %
17.12.2018 13:22 6,6 C 6,1 C 5,6 C 97 % 1016,1 hPa 0,0 l/m 0 min 2 min 103 W/m 12,9 km/h (3 Bft) 96,00 %
17.12.2018 13:24 6,6 C 6,1 C 5,6 C 97 % 1016,2 hPa 0,0 l/m 0 min 2 min 117 W/m 16,1 km/h (3 Bft) 97,83 %
17.12.2018 13:26 6,6 C 6,1 C 5,6 C 97 % 1016,2 hPa 0,0 l/m 0 min 2 min 125 W/m 16,1 km/h (3 Bft) 95,74 %
17.12.2018 13:28 6,7 C 6,1 C 5,6 C 97 % 1016,2 hPa 0,0 l/m 0 min 2 min 102 W/m 12,9 km/h (3 Bft) 97,14 %
17.12.2018 13:30 6,7 C 6,1 C 5,6 C 97 % 1016,1 hPa 0,0 l/m 0 min 0 min 72 W/m 16,1 km/h (3 Bft) 96,23 %
17.12.2018 13:32 6,7 C 6,1 C 5,6 C 97 % 1016,1 hPa 0,0 l/m 0 min 2 min 53 W/m 25,7 km/h (4 Bft) 95,74 %
17.12.2018 13:34 6,7 C 6,1 C 5,6 C 97 % 1016,1 hPa 0,0 l/m 0 min 0 min 38 W/m 9,7 km/h (2 Bft) 97,87 %
17.12.2018 13:36 6,7 C 6,1 C 5,0 C 97 % 1016,2 hPa 0,0 l/m 0 min 2 min 26 W/m 16,1 km/h (3 Bft) 98,00 %
17.12.2018 13:38 6,7 C 5,6 C 5,0 C 97 % 1016,2 hPa 0,2 l/m 0 min 2 min 27 W/m 12,9 km/h (3 Bft) 97,92 %
17.12.2018 13:40 6,7 C 5,6 C 5,0 C 97 % 1016,2 hPa 0,0 l/m 0 min 2 min 22 W/m 16,1 km/h (3 Bft) 100,00 %
17.12.2018 13:42 6,7 C 5,6 C 5,0 C 97 % 1016,2 hPa 0,0 l/m 0 min 2 min 21 W/m 6,4 km/h (2 Bft) 97,92 %
17.12.2018 13:44 6,7 C 5,6 C 5,0 C 97 % 1016,3 hPa 0,0 l/m 0 min 2 min 30 W/m 6,4 km/h (2 Bft) 97,87 %
17.12.2018 13:46 6,7 C 5,6 C 5,0 C 97 % 1016,4 hPa 0,2 l/m 0 min 2 min 47 W/m 6,4 km/h (2 Bft) 97,87 %
17.12.2018 13:48 6,7 C 5,6 C 5,0 C 97 % 1016,4 hPa 0,0 l/m 0 min 2 min 54 W/m 9,7 km/h (2 Bft) 97,83 %
17.12.2018 13:50 6,7 C 5,6 C 5,0 C 97 % 1016,4 hPa 0,0 l/m 0 min 2 min 69 W/m 16,1 km/h (3 Bft) 100,00 %
17.12.2018 13:52 6,7 C 5,6 C 5,0 C 97 % 1016,4 hPa 0,0 l/m 0 min 2 min 78 W/m 12,9 km/h (3 Bft) 95,65 %
17.12.2018 13:54 6,7 C 5,6 C 5,0 C 97 % 1016,4 hPa 0,0 l/m 0 min 2 min 62 W/m 12,9 km/h (3 Bft) 95,74 %
17.12.2018 13:56 6,7 C 5,6 C 5,0 C 97 % 1016,4 hPa 0,0 l/m 0 min 2 min 44 W/m 16,1 km/h (3 Bft) 97,87 %
17.12.2018 13:58 6,7 C 5,6 C 5,0 C 97 % 1016,4 hPa 0,0 l/m 0 min 2 min 39 W/m 12,9 km/h (3 Bft) 95,74 %
17.12.2018 14:00 6,7 C 5,6 C 5,0 C 97 % 1016,6 hPa 0,0 l/m 0 min 2 min 32 W/m 22,5 km/h (4 Bft) 97,87 %
17.12.2018 14:02 6,7 C 5,6 C 5,0 C 97 % 1016,6 hPa 0,0 l/m 0 min 2 min 22 W/m 16,1 km/h (3 Bft) 97,56 %
17.12.2018 14:04 6,7 C 5,6 C 5,0 C 97 % 1016,7 hPa 0,0 l/m 0 min 2 min 13 W/m 12,9 km/h (3 Bft) 97,87 %
17.12.2018 14:06 6,7 C 5,6 C 5,0 C 96 % 1016,7 hPa 0,2 l/m 0 min 2 min 11 W/m 6,4 km/h (2 Bft) 94,00 %
17.12.2018 14:08 6,7 C 5,6 C 5,0 C 96 % 1016,7 hPa 0,0 l/m 0 min 2 min 9 W/m 9,7 km/h (2 Bft) 97,87 %
17.12.2018 14:10 6,7 C 5,6 C 5,0 C 96 % 1016,7 hPa 0,0 l/m 0 min 2 min 9 W/m 6,4 km/h (2 Bft) 97,96 %
17.12.2018 14:12 6,7 C 5,6 C 5,0 C 96 % 1016,8 hPa 0,0 l/m 0 min 2 min 6 W/m 6,4 km/h (2 Bft) 97,83 %
17.12.2018 14:14 6,7 C 5,6 C 5,0 C 96 % 1016,9 hPa 0,0 l/m 0 min 2 min 6 W/m 6,4 km/h (2 Bft) 97,87 %
17.12.2018 14:16 6,7 C 5,6 C 5,0 C 96 % 1016,7 hPa 0,0 l/m 0 min 2 min 7 W/m 9,7 km/h (2 Bft) 97,87 %
17.12.2018 14:18 6,7 C 5,6 C 5,0 C 96 % 1016,9 hPa 0,2 l/m 0 min 2 min 9 W/m 6,4 km/h (2 Bft) 97,87 %
17.12.2018 14:20 6,6 C 5,6 C 5,0 C 96 % 1016,9 hPa 0,0 l/m 0 min 2 min 10 W/m 6,4 km/h (2 Bft) 95,74 %
17.12.2018 14:22 6,6 C 5,6 C 5,0 C 96 % 1016,9 hPa 0,0 l/m 0 min 2 min 8 W/m 3,2 km/h (1 Bft) 95,65 %
17.12.2018 14:24 6,6 C 5,6 C 5,0 C 96 % 1016,9 hPa 0,2 l/m 0 min 2 min 6 W/m 6,4 km/h (2 Bft) 95,74 %
17.12.2018 14:26 6,6 C 5,6 C 5,0 C 96 % 1017,0 hPa 0,0 l/m 0 min 2 min 11 W/m 9,7 km/h (2 Bft) 95,74 %
17.12.2018 14:28 6,6 C 5,6 C 5,0 C 96 % 1017,0 hPa 0,0 l/m 0 min 2 min 15 W/m 6,4 km/h (2 Bft) 97,87 %
17.12.2018 14:30 6,6 C 5,6 C 5,0 C 96 % 1017,0 hPa 0,0 l/m 0 min 2 min 12 W/m 3,2 km/h (1 Bft) 97,87 %
17.12.2018 14:32 6,6 C 5,6 C 5,0 C 96 % 1017,1 hPa 0,0 l/m 0 min 2 min 10 W/m 9,7 km/h (2 Bft) 97,87 %
17.12.2018 14:34 6,6 C 5,6 C 5,0 C 96 % 1017,1 hPa 0,0 l/m 0 min 2 min 13 W/m 3,2 km/h (1 Bft) 97,87 %
17.12.2018 14:36 6,6 C 5,6 C 5,0 C 96 % 1017,1 hPa 0,2 l/m 0 min 2 min 15 W/m 3,2 km/h (1 Bft) 97,87 %
17.12.2018 14:38 6,5 C 5,6 C 5,0 C 96 % 1017,1 hPa 0,0 l/m 0 min 2 min 13 W/m 6,4 km/h (2 Bft) 97,83 %
17.12.2018 14:40 6,5 C 5,6 C 5,0 C 96 % 1017,1 hPa 0,0 l/m 0 min 2 min 11 W/m 6,4 km/h (2 Bft) 100,00 %
17.12.2018 14:42 6,5 C 5,6 C 5,0 C 96 % 1017,1 hPa 0,2 l/m 0 min 2 min 11 W/m 3,2 km/h (1 Bft) 100,00 %
17.12.2018 14:44 6,5 C 5,6 C 5,0 C 96 % 1017,0 hPa 0,0 l/m 0 min 2 min 11 W/m 9,7 km/h (2 Bft) 100,00 %
17.12.2018 14:46 6,5 C 5,6 C 5,0 C 96 % 1017,1 hPa 0,0 l/m 0 min 2 min 13 W/m 3,2 km/h (1 Bft) 97,83 %
17.12.2018 14:48 6,5 C 5,6 C 5,0 C 96 % 1017,1 hPa 0,0 l/m 0 min 2 min 16 W/m 3,2 km/h (1 Bft) 100,00 %
17.12.2018 14:50 6,5 C 5,6 C 5,0 C 96 % 1017,1 hPa 0,0 l/m 0 min 2 min 20 W/m 3,2 km/h (1 Bft) 97,96 %
17.12.2018 14:52 6,5 C 5,6 C 5,0 C 96 % 1017,0 hPa 0,0 l/m 0 min 2 min 22 W/m 6,4 km/h (2 Bft) 100,00 %
17.12.2018 14:54 6,5 C 5,6 C 5,0 C 96 % 1017,0 hPa 0,0 l/m 0 min 2 min 26 W/m 6,4 km/h (2 Bft) 100,00 %
17.12.2018 14:56 6,5 C 5,6 C 5,0 C 96 % 1017,0 hPa 0,0 l/m 0 min 2 min 31 W/m 6,4 km/h (2 Bft) 100,00 %
17.12.2018 14:58 6,5 C 5,6 C 5,0 C 96 % 1017,0 hPa 0,0 l/m 0 min 2 min 36 W/m 12,9 km/h (3 Bft) 100,00 %
17.12.2018 15:00 6,5 C 5,6 C 5,0 C 96 % 1017,0 hPa 0,0 l/m 0 min 2 min 45 W/m 9,7 km/h (2 Bft) 97,87 %
17.12.2018 15:02 6,5 C 5,6 C 5,0 C 96 % 1017,1 hPa 0,0 l/m 0 min 2 min 48 W/m 6,4 km/h (2 Bft) 100,00 %
17.12.2018 15:04 6,5 C 5,6 C 5,0 C 96 % 1017,0 hPa 0,0 l/m 0 min 0 min 51 W/m 9,7 km/h (2 Bft) 100,00 %
17.12.2018 15:06 6,5 C 6,1 C 5,0 C 96 % 1017,1 hPa 0,0 l/m 0 min 0 min 56 W/m 6,4 km/h (2 Bft) 100,00 %
17.12.2018 15:08 6,5 C 6,1 C 5,0 C 96 % 1017,1 hPa 0,0 l/m 0 min 0 min 56 W/m 9,7 km/h (2 Bft) 100,00 %
17.12.2018 15:10 6,6 C 6,1 C 5,0 C 96 % 1017,1 hPa 0,0 l/m 0 min 0 min 53 W/m 9,7 km/h (2 Bft) 97,92 %
17.12.2018 15:12 6,6 C 6,1 C 5,0 C 96 % 1017,2 hPa 0,0 l/m 0 min 0 min 53 W/m 6,4 km/h (2 Bft) 100,00 %
17.12.2018 15:14 6,6 C 6,1 C 5,0 C 96 % 1017,2 hPa 0,0 l/m 0 min 0 min 50 W/m 19,3 km/h (3 Bft) 100,00 %
17.12.2018 15:16 6,6 C 6,1 C 5,0 C 96 % 1017,3 hPa 0,0 l/m 0 min 0 min 47 W/m 9,7 km/h (2 Bft) 100,00 %
17.12.2018 15:18 6,6 C 6,1 C 5,0 C 96 % 1017,3 hPa 0,0 l/m 0 min 0 min 49 W/m 16,1 km/h (3 Bft) 100,00 %
17.12.2018 15:20 6,6 C 6,1 C 5,0 C 96 % 1017,4 hPa 0,0 l/m 0 min 0 min 59 W/m 12,9 km/h (3 Bft) 100,00 %
17.12.2018 15:22 6,7 C 6,1 C 5,6 C 96 % 1017,5 hPa 0,0 l/m 2 min 0 min 69 W/m 9,7 km/h (2 Bft) 97,83 %
17.12.2018 15:24 6,7 C 6,1 C 5,6 C 96 % 1017,5 hPa 0,0 l/m 2 min 0 min 74 W/m 9,7 km/h (2 Bft) 100,00 %
17.12.2018 15:26 6,7 C 6,1 C 5,6 C 96 % 1017,6 hPa 0,0 l/m 2 min 0 min 68 W/m 6,4 km/h (2 Bft) 100,00 %
17.12.2018 15:28 6,7 C 6,1 C 5,6 C 96 % 1017,7 hPa 0,0 l/m 2 min 0 min 57 W/m 9,7 km/h (2 Bft) 95,74 %
17.12.2018 15:30 6,7 C 6,1 C 5,6 C 96 % 1017,7 hPa 0,0 l/m 0 min 0 min 44 W/m 9,7 km/h (2 Bft) 95,74 %
17.12.2018 15:32 6,7 C 6,1 C 5,6 C 96 % 1017,7 hPa 0,0 l/m 0 min 0 min 36 W/m 6,4 km/h (2 Bft) 100,00 %
17.12.2018 15:34 6,7 C 6,1 C 5,6 C 96 % 1017,8 hPa 0,0 l/m 0 min 0 min 37 W/m 9,7 km/h (2 Bft) 100,00 %
17.12.2018 15:36 6,8 C 6,1 C 5,6 C 96 % 1017,9 hPa 0,0 l/m 0 min 0 min 34 W/m 6,4 km/h (2 Bft) 100,00 %
17.12.2018 15:38 6,8 C 6,1 C 5,6 C 96 % 1017,9 hPa 0,0 l/m 0 min 0 min 33 W/m 3,2 km/h (1 Bft) 97,87 %
17.12.2018 15:40 6,8 C 6,1 C 5,6 C 96 % 1017,9 hPa 0,0 l/m 0 min 0 min 33 W/m 19,3 km/h (3 Bft) 95,74 %
17.12.2018 15:42 6,8 C 6,1 C 5,6 C 96 % 1017,9 hPa 0,0 l/m 0 min 0 min 33 W/m 6,4 km/h (2 Bft) 95,74 %
17.12.2018 15:44 6,8 C 6,1 C 5,6 C 96 % 1017,9 hPa 0,0 l/m 0 min 0 min 34 W/m 0,0 km/h (0 Bft) 95,74 %
17.12.2018 15:46 6,8 C 6,1 C 5,6 C 96 % 1018,0 hPa 0,0 l/m 0 min 0 min 37 W/m 9,7 km/h (2 Bft) 95,74 %
17.12.2018 15:48 6,8 C 6,1 C 5,6 C 96 % 1018,0 hPa 0,0 l/m 2 min 0 min 40 W/m 6,4 km/h (2 Bft) 95,74 %
17.12.2018 15:50 6,8 C 6,1 C 5,6 C 96 % 1018,0 hPa 0,0 l/m 2 min 0 min 38 W/m 6,4 km/h (2 Bft) 93,48 %
17.12.2018 15:52 6,8 C 6,1 C 5,6 C 96 % 1018,0 hPa 0,0 l/m 2 min 0 min 38 W/m 6,4 km/h (2 Bft) 95,74 %
17.12.2018 15:54 6,8 C 6,1 C 5,6 C 96 % 1018,0 hPa 0,0 l/m 2 min 0 min 39 W/m 6,4 km/h (2 Bft) 95,74 %
17.12.2018 15:56 6,8 C 6,1 C 5,6 C 96 % 1018,1 hPa 0,0 l/m 2 min 0 min 37 W/m 6,4 km/h (2 Bft) 95,74 %
17.12.2018 15:58 6,8 C 6,1 C 5,6 C 96 % 1018,1 hPa 0,0 l/m 2 min 0 min 35 W/m 12,9 km/h (3 Bft) 93,62 %
17.12.2018 16:00 6,8 C 6,1 C 5,6 C 96 % 1018,2 hPa 0,0 l/m 2 min 0 min 35 W/m 6,4 km/h (2 Bft) 95,65 %
17.12.2018 16:02 6,9 C 6,1 C 5,6 C 96 % 1018,2 hPa 0,0 l/m 2 min 0 min 33 W/m 12,9 km/h (3 Bft) 95,45 %
17.12.2018 16:04 6,9 C 6,1 C 5,6 C 96 % 1018,3 hPa 0,0 l/m 2 min 0 min 28 W/m 6,4 km/h (2 Bft) 95,74 %
17.12.2018 16:06 6,9 C 6,1 C 5,6 C 96 % 1018,4 hPa 0,0 l/m 2 min 0 min 24 W/m 6,4 km/h (2 Bft) 96,00 %
17.12.2018 16:08 6,9 C 6,1 C 5,6 C 96 % 1018,5 hPa 0,0 l/m 2 min 0 min 20 W/m 16,1 km/h (3 Bft) 95,74 %
17.12.2018 16:10 6,9 C 6,1 C 5,6 C 96 % 1018,5 hPa 0,0 l/m 0 min 0 min 18 W/m 9,7 km/h (2 Bft) 93,62 %
17.12.2018 16:12 6,9 C 6,1 C 5,6 C 96 % 1018,5 hPa 0,0 l/m 0 min 0 min 14 W/m 9,7 km/h (2 Bft) 97,83 %
17.12.2018 16:14 6,9 C 6,1 C 5,6 C 96 % 1018,5 hPa 0,0 l/m 0 min 0 min 11 W/m 9,7 km/h (2 Bft) 95,74 %
17.12.2018 16:16 6,9 C 6,1 C 5,6 C 96 % 1018,5 hPa 0,0 l/m 0 min 0 min 11 W/m 9,7 km/h (2 Bft) 93,62 %
17.12.2018 16:18 6,9 C 6,1 C 5,6 C 96 % 1018,5 hPa 0,0 l/m 0 min 0 min 11 W/m 9,7 km/h (2 Bft) 93,62 %
17.12.2018 16:20 6,9 C 6,1 C 5,6 C 96 % 1018,5 hPa 0,0 l/m 0 min 0 min 11 W/m 9,7 km/h (2 Bft) 95,74 %
17.12.2018 16:22 6,9 C 6,1 C 5,6 C 96 % 1018,5 hPa 0,0 l/m 0 min 0 min 11 W/m 12,9 km/h (3 Bft) 93,62 %
17.12.2018 16:24 6,9 C 6,1 C 5,0 C 96 % 1018,5 hPa 0,0 l/m 0 min 0 min 11 W/m 9,7 km/h (2 Bft) 95,65 %
17.12.2018 16:26 6,9 C 6,1 C 5,6 C 96 % 1018,6 hPa 0,0 l/m 0 min 0 min 8 W/m 16,1 km/h (3 Bft) 93,62 %
17.12.2018 16:28 6,9 C 6,1 C 5,6 C 95 % 1018,6 hPa 0,0 l/m 0 min 0 min 5 W/m 9,7 km/h (2 Bft) 95,74 %
17.12.2018 16:30 6,9 C 6,1 C 5,0 C 95 % 1018,7 hPa 0,0 l/m 0 min 0 min 1 W/m 9,7 km/h (2 Bft) 95,74 %
17.12.2018 16:32 6,9 C 6,1 C 5,0 C 95 % 1018,7 hPa 0,0 l/m 0 min 0 min 0 W/m 12,9 km/h (3 Bft) 89,36 %
17.12.2018 16:34 6,9 C 6,1 C 5,0 C 95 % 1018,7 hPa 0,0 l/m 0 min 0 min 0 W/m 12,9 km/h (3 Bft) 95,74 %
17.12.2018 16:36 6,9 C 6,1 C 5,0 C 95 % 1018,8 hPa 0,0 l/m 0 min 0 min 0 W/m 16,1 km/h (3 Bft) 95,65 %
17.12.2018 16:38 6,9 C 6,1 C 5,0 C 95 % 1018,8 hPa 0,0 l/m 0 min 0 min 0 W/m 12,9 km/h (3 Bft) 97,87 %
17.12.2018 16:40 6,9 C 6,1 C 5,0 C 95 % 1018,8 hPa 0,0 l/m 0 min 0 min 0 W/m 16,1 km/h (3 Bft) 97,37 %
17.12.2018 16:42 6,9 C 6,1 C 5,0 C 95 % 1018,8 hPa 0,0 l/m 0 min 0 min 0 W/m 9,7 km/h (2 Bft) 93,62 %
17.12.2018 16:44 6,9 C 6,1 C 5,0 C 95 % 1019,0 hPa 0,0 l/m 0 min 0 min 0 W/m 12,9 km/h (3 Bft) 95,74 %
17.12.2018 16:46 6,9 C 6,1 C 5,0 C 94 % 1019,0 hPa 0,0 l/m 0 min 0 min 0 W/m 9,7 km/h (2 Bft) 97,87 %
17.12.2018 16:48 6,9 C 6,1 C 5,0 C 94 % 1019,1 hPa 0,0 l/m 0 min 0 min 0 W/m 9,7 km/h (2 Bft) 97,92 %
17.12.2018 16:50 6,9 C 5,6 C 5,0 C 94 % 1019,1 hPa 0,0 l/m 0 min 0 min 0 W/m 6,4 km/h (2 Bft) 97,83 %
17.12.2018 16:52 6,9 C 5,6 C 5,0 C 94 % 1019,2 hPa 0,0 l/m 0 min 0 min 0 W/m 3,2 km/h (1 Bft) 93,62 %
17.12.2018 16:54 6,9 C 5,6 C 5,0 C 94 % 1019,3 hPa 0,0 l/m 0 min 0 min 0 W/m 3,2 km/h (1 Bft) 97,87 %
17.12.2018 16:56 6,9 C 5,6 C 5,0 C 94 % 1019,3 hPa 0,0 l/m 0 min 0 min 0 W/m 6,4 km/h (2 Bft) 97,87 %
17.12.2018 16:58 6,9 C 5,6 C 5,0 C 94 % 1019,3 hPa 0,0 l/m 0 min 0 min 0 W/m 3,2 km/h (1 Bft) 97,87 %
17.12.2018 17:00 6,9 C 5,6 C 5,0 C 94 % 1019,4 hPa 0,0 l/m 0 min 0 min 0 W/m 9,7 km/h (2 Bft) 95,65 %
17.12.2018 17:02 6,9 C 5,6 C 5,0 C 94 % 1019,5 hPa 0,0 l/m 0 min 0 min 0 W/m 6,4 km/h (2 Bft) 95,74 %
17.12.2018 17:04 6,8 C 5,6 C 5,0 C 94 % 1019,5 hPa 0,0 l/m 0 min 0 min 0 W/m 0,0 km/h (0 Bft) 93,62 %
17.12.2018 17:06 6,8 C 5,6 C 5,0 C 94 % 1019,5 hPa 0,0 l/m 0 min 0 min 0 W/m 9,7 km/h (2 Bft) 98,31 %
17.12.2018 17:08 6,8 C 5,6 C 5,0 C 94 % 1019,6 hPa 0,0 l/m 0 min 0 min 0 W/m 6,4 km/h (2 Bft) 97,14 %
17.12.2018 17:10 6,8 C 5,6 C 5,0 C 94 % 1019,5 hPa 0,0 l/m 0 min 0 min 0 W/m 9,7 km/h (2 Bft) 97,87 %
17.12.2018 17:12 6,8 C 5,6 C 5,0 C 94 % 1019,5 hPa 0,0 l/m 0 min 0 min 0 W/m 12,9 km/h (3 Bft) 97,83 %
17.12.2018 17:14 6,8 C 5,6 C 5,0 C 94 % 1019,6 hPa 0,0 l/m 0 min 0 min 0 W/m 9,7 km/h (2 Bft) 100,00 %
17.12.2018 17:16 6,8 C 5,6 C 5,0 C 94 % 1019,6 hPa 0,0 l/m 0 min 0 min 0 W/m 9,7 km/h (2 Bft) 100,00 %
17.12.2018 17:18 6,8 C 5,6 C 5,0 C 93 % 1019,6 hPa 0,0 l/m 0 min 0 min 0 W/m 6,4 km/h (2 Bft) 97,87 %
17.12.2018 17:20 6,8 C 5,6 C 5,0 C 93 % 1019,6 hPa 0,0 l/m 0 min 0 min 0 W/m 9,7 km/h (2 Bft) 100,00 %
17.12.2018 17:22 6,7 C 5,6 C 5,0 C 93 % 1019,6 hPa 0,0 l/m 0 min 0 min 0 W/m 6,4 km/h (2 Bft) 100,00 %
17.12.2018 17:24 6,7 C 5,6 C 5,0 C 93 % 1019,7 hPa 0,0 l/m 0 min 0 min 0 W/m 6,4 km/h (2 Bft) 97,83 %
17.12.2018 17:26 6,7 C 5,6 C 5,0 C 93 % 1019,7 hPa 0,0 l/m 0 min 0 min 0 W/m 6,4 km/h (2 Bft) 100,00 %
17.12.2018 17:28 6,7 C 5,6 C 5,0 C 93 % 1019,7 hPa 0,0 l/m 0 min 0 min 0 W/m 6,4 km/h (2 Bft) 97,87 %
17.12.2018 17:30 6,7 C 5,6 C 5,0 C 93 % 1019,8 hPa 0,0 l/m 0 min 0 min 0 W/m 6,4 km/h (2 Bft) 100,00 %
17.12.2018 17:32 6,7 C 5,6 C 4,4 C 93 % 1019,8 hPa 0,0 l/m 0 min 0 min 0 W/m 6,4 km/h (2 Bft) 100,00 %
17.12.2018 17:34 6,7 C 5,6 C 5,0 C 93 % 1019,8 hPa 0,0 l/m 0 min 0 min 0 W/m 6,4 km/h (2 Bft) 100,00 %
17.12.2018 17:36 6,6 C 5,6 C 5,0 C 93 % 1019,8 hPa 0,0 l/m 0 min 0 min 0 W/m 3,2 km/h (1 Bft) 100,00 %
17.12.2018 17:38 6,6 C 5,0 C 5,0 C 93 % 1019,8 hPa 0,0 l/m 0 min 0 min 0 W/m 3,2 km/h (1 Bft) 100,00 %
17.12.2018 17:40 6,6 C 5,0 C 4,4 C 93 % 1019,8 hPa 0,0 l/m 0 min 0 min 0 W/m 0,0 km/h (0 Bft) 100,00 %
17.12.2018 17:42 6,5 C 5,0 C 5,0 C 93 % 1019,8 hPa 0,0 l/m 0 min 0 min 0 W/m 9,7 km/h (2 Bft) 97,87 %
17.12.2018 17:44 6,5 C 5,0 C 5,0 C 93 % 1019,8 hPa 0,0 l/m 0 min 0 min 0 W/m 6,4 km/h (2 Bft) 100,00 %
17.12.2018 17:46 6,5 C 5,0 C 5,0 C 93 % 1019,8 hPa 0,0 l/m 0 min 0 min 0 W/m 6,4 km/h (2 Bft) 97,87 %
17.12.2018 17:48 6,4 C 5,0 C 4,4 C 93 % 1019,9 hPa 0,0 l/m 0 min 0 min 0 W/m 6,4 km/h (2 Bft) 100,00 %
17.12.2018 17:50 6,4 C 5,0 C 4,4 C 93 % 1019,9 hPa 0,0 l/m 0 min 0 min 0 W/m 6,4 km/h (2 Bft) 100,00 %
17.12.2018 17:52 6,4 C 5,0 C 4,4 C 93 % 1019,9 hPa 0,0 l/m 0 min 0 min 0 W/m 9,7 km/h (2 Bft) 100,00 %
17.12.2018 17:54 6,4 C 5,0 C 4,4 C 93 % 1019,9 hPa 0,0 l/m 0 min 0 min 0 W/m 6,4 km/h (2 Bft) 100,00 %
17.12.2018 17:56 6,4 C 5,0 C 4,4 C 93 % 1019,9 hPa 0,0 l/m 0 min 0 min 0 W/m 6,4 km/h (2 Bft) 100,00 %
17.12.2018 17:58 6,3 C 5,0 C 4,4 C 93 % 1019,9 hPa 0,0 l/m 0 min 0 min 0 W/m 12,9 km/h (3 Bft) 100,00 %
17.12.2018 18:00 6,3 C 5,0 C 4,4 C 93 % 1020,0 hPa 0,0 l/m 0 min 0 min 0 W/m 9,7 km/h (2 Bft) 100,00 %
17.12.2018 18:02 6,3 C 5,0 C 4,4 C 93 % 1020,0 hPa 0,0 l/m 0 min 0 min 0 W/m 3,2 km/h (1 Bft) 100,00 %
17.12.2018 18:04 6,3 C 5,0 C 4,4 C 93 % 1020,0 hPa 0,0 l/m 0 min 0 min 0 W/m 9,7 km/h (2 Bft) 97,87 %
17.12.2018 18:08 6,2 C 5,0 C 4,4 C 93 % 1020,0 hPa 0,0 l/m 0 min 0 min 0 W/m 3,2 km/h (1 Bft) 100,00 %
17.12.2018 18:10 6,2 C 5,0 C 4,4 C 93 % 1020,0 hPa 0,0 l/m 0 min 0 min 0 W/m 0,0 km/h (0 Bft) 100,00 %
17.12.2018 18:12 6,2 C 5,0 C 4,4 C 93 % 1020,0 hPa 0,0 l/m 0 min 0 min 0 W/m 6,4 km/h (2 Bft) 100,00 %
17.12.2018 18:14 6,1 C 5,0 C 4,4 C 93 % 1020,1 hPa 0,0 l/m 0 min 0 min 0 W/m 6,4 km/h (2 Bft) 97,87 %
17.12.2018 18:16 6,1 C 5,0 C 4,4 C 93 % 1020,1 hPa 0,0 l/m 0 min 0 min 0 W/m 9,7 km/h (2 Bft) 97,87 %
17.12.2018 18:18 6,1 C 5,0 C 4,4 C 93 % 1020,1 hPa 0,0 l/m 0 min 0 min 0 W/m 6,4 km/h (2 Bft) 95,74 %
17.12.2018 18:20 6,1 C 5,0 C 4,4 C 93 % 1020,0 hPa 0,0 l/m 0 min 0 min 0 W/m 6,4 km/h (2 Bft) 97,87 %
17.12.2018 18:22 6,0 C 5,0 C 4,4 C 93 % 1020,1 hPa 0,0 l/m 0 min 0 min 0 W/m 6,4 km/h (2 Bft) 97,83 %
17.12.2018 18:24 6,0 C 4,4 C 3,9 C 93 % 1020,2 hPa 0,0 l/m 0 min 0 min 0 W/m 3,2 km/h (1 Bft) 97,87 %
17.12.2018 18:26 6,0 C 4,4 C 3,9 C 93 % 1020,2 hPa 0,0 l/m 0 min 0 min 0 W/m 6,4 km/h (2 Bft) 97,87 %
17.12.2018 18:28 5,9 C 4,4 C 3,9 C 93 % 1020,2 hPa 0,0 l/m 0 min 0 min 0 W/m 9,7 km/h (2 Bft) 97,87 %
17.12.2018 18:30 5,9 C 4,4 C 3,9 C 93 % 1020,2 hPa 0,0 l/m 0 min 0 min 0 W/m 6,4 km/h (2 Bft) 95,74 %
17.12.2018 18:32 5,9 C 4,4 C 3,9 C 93 % 1020,2 hPa 0,0 l/m 0 min 0 min 0 W/m 6,4 km/h (2 Bft) 97,87 %
17.12.2018 18:34 5,9 C 4,4 C 3,9 C 93 % 1020,3 hPa 0,0 l/m 0 min 0 min 0 W/m 9,7 km/h (2 Bft) 97,83 %
17.12.2018 18:36 5,8 C 4,4 C 4,4 C 93 % 1020,3 hPa 0,0 l/m 0 min 0 min 0 W/m 12,9 km/h (3 Bft) 98,31 %
17.12.2018 18:38 5,8 C 4,4 C 4,4 C 93 % 1020,3 hPa 0,0 l/m 0 min 0 min 0 W/m 9,7 km/h (2 Bft) 97,14 %
17.12.2018 18:40 5,8 C 4,4 C 3,9 C 94 % 1020,4 hPa 0,0 l/m 0 min 0 min 0 W/m 9,7 km/h (2 Bft) 97,87 %
17.12.2018 18:42 5,8 C 4,4 C 3,9 C 94 % 1020,5 hPa 0,0 l/m 0 min 0 min 0 W/m 6,4 km/h (2 Bft) 97,87 %
17.12.2018 18:44 5,8 C 4,4 C 3,9 C 94 % 1020,4 hPa 0,0 l/m 0 min 0 min 0 W/m 9,7 km/h (2 Bft) 97,87 %
17.12.2018 18:46 5,7 C 4,4 C 3,9 C 94 % 1020,4 hPa 0,0 l/m 0 min 0 min 0 W/m 6,4 km/h (2 Bft) 97,83 %
17.12.2018 18:48 5,7 C 4,4 C 3,9 C 94 % 1020,5 hPa 0,0 l/m 0 min 0 min 0 W/m 6,4 km/h (2 Bft) 97,87 %
17.12.2018 18:50 5,7 C 4,4 C 3,9 C 94 % 1020,5 hPa 0,0 l/m 0 min 0 min 0 W/m 6,4 km/h (2 Bft) 97,87 %
17.12.2018 18:52 5,7 C 4,4 C 3,9 C 94 % 1020,5 hPa 0,0 l/m 0 min 0 min 0 W/m 9,7 km/h (2 Bft) 97,87 %
17.12.2018 18:54 5,6 C 4,4 C 3,9 C 94 % 1020,5 hPa 0,0 l/m 0 min 0 min 0 W/m 6,4 km/h (2 Bft) 97,87 %
17.12.2018 18:56 5,6 C 4,4 C 3,9 C 94 % 1020,6 hPa 0,0 l/m 0 min 0 min 0 W/m 9,7 km/h (2 Bft) 100,00 %
17.12.2018 18:58 5,6 C 4,4 C 3,9 C 94 % 1020,6 hPa 0,0 l/m 0 min 0 min 0 W/m 6,4 km/h (2 Bft) 100,00 %
17.12.2018 19:00 5,6 C 4,4 C 3,9 C 94 % 1020,6 hPa 0,0 l/m 0 min 0 min 0 W/m 3,2 km/h (1 Bft) 93,62 %
17.12.2018 19:02 5,5 C 4,4 C 3,9 C 94 % 1020,6 hPa 0,0 l/m 0 min 0 min 0 W/m 6,4 km/h (2 Bft) 97,87 %
17.12.2018 19:04 5,5 C 4,4 C 3,9 C 94 % 1020,7 hPa 0,0 l/m 0 min 0 min 0 W/m 3,2 km/h (1 Bft) 95,74 %
17.12.2018 19:06 5,4 C 4,4 C 3,9 C 94 % 1020,7 hPa 0,0 l/m 0 min 0 min 0 W/m 0,0 km/h (0 Bft) 95,74 %
17.12.2018 19:08 5,4 C 4,4 C 3,9 C 94 % 1020,8 hPa 0,0 l/m 0 min 0 min 0 W/m 6,4 km/h (2 Bft) 97,87 %
17.12.2018 19:10 5,4 C 4,4 C 3,9 C 94 % 1020,8 hPa 0,0 l/m 0 min 0 min 0 W/m 12,9 km/h (3 Bft) 93,62 %
17.12.2018 19:12 5,4 C 4,4 C 3,9 C 94 % 1020,7 hPa 0,0 l/m 0 min 0 min 0 W/m 12,9 km/h (3 Bft) 95,74 %
17.12.2018 19:14 5,4 C 4,4 C 3,9 C 94 % 1020,7 hPa 0,0 l/m 0 min 0 min 0 W/m 19,3 km/h (3 Bft) 97,87 %
17.12.2018 19:16 5,4 C 4,4 C 3,9 C 94 % 1020,7 hPa 0,0 l/m 0 min 0 min 0 W/m 12,9 km/h (3 Bft) 95,74 %
17.12.2018 19:18 5,4 C 4,4 C 3,9 C 94 % 1020,8 hPa 0,0 l/m 0 min 0 min 0 W/m 9,7 km/h (2 Bft) 93,62 %
17.12.2018 19:20 5,4 C 4,4 C 3,9 C 94 % 1020,8 hPa 0,0 l/m 0 min 0 min 0 W/m 9,7 km/h (2 Bft) 95,74 %
17.12.2018 19:22 5,4 C 4,4 C 3,9 C 94 % 1020,8 hPa 0,0 l/m 0 min 0 min 0 W/m 9,7 km/h (2 Bft) 95,65 %
17.12.2018 19:24 5,4 C 4,4 C 3,9 C 94 % 1020,8 hPa 0,0 l/m 0 min 0 min 0 W/m 9,7 km/h (2 Bft) 95,74 %
17.12.2018 19:26 5,4 C 4,4 C 3,9 C 94 % 1020,8 hPa 0,0 l/m 0 min 0 min 0 W/m 6,4 km/h (2 Bft) 93,62 %
17.12.2018 19:28 5,4 C 4,4 C 3,9 C 94 % 1020,8 hPa 0,0 l/m 0 min 0 min 0 W/m 9,7 km/h (2 Bft) 95,74 %
17.12.2018 19:30 5,4 C 4,4 C 3,9 C 94 % 1020,8 hPa 0,0 l/m 0 min 0 min 0 W/m 9,7 km/h (2 Bft) 93,62 %
17.12.2018 19:32 5,4 C 4,4 C 4,4 C 94 % 1020,8 hPa 0,0 l/m 0 min 0 min 0 W/m 16,1 km/h (3 Bft) 95,65 %
17.12.2018 19:34 5,4 C 4,4 C 3,9 C 95 % 1020,9 hPa 0,0 l/m 0 min 0 min 0 W/m 9,7 km/h (2 Bft) 95,74 %
17.12.2018 19:36 5,4 C 4,4 C 3,9 C 95 % 1021,0 hPa 0,0 l/m 0 min 0 min 0 W/m 6,4 km/h (2 Bft) 93,62 %
17.12.2018 19:38 5,4 C 4,4 C 3,9 C 95 % 1021,0 hPa 0,0 l/m 0 min 0 min 0 W/m 3,2 km/h (1 Bft) 95,74 %
17.12.2018 19:40 5,4 C 4,4 C 3,9 C 95 % 1020,9 hPa 0,0 l/m 0 min 0 min 0 W/m 6,4 km/h (2 Bft) 97,87 %
17.12.2018 19:42 5,4 C 4,4 C 3,9 C 95 % 1020,9 hPa 0,0 l/m 0 min 0 min 0 W/m 9,7 km/h (2 Bft) 95,74 %
17.12.2018 19:44 5,4 C 4,4 C 3,9 C 95 % 1021,0 hPa 0,0 l/m 0 min 0 min 0 W/m 16,1 km/h (3 Bft) 95,65 %
17.12.2018 19:46 5,4 C 4,4 C 3,9 C 95 % 1021,1 hPa 0,0 l/m 0 min 0 min 0 W/m 9,7 km/h (2 Bft) 97,87 %
17.12.2018 19:48 5,4 C 5,0 C 4,4 C 95 % 1021,1 hPa 0,0 l/m 0 min 0 min 0 W/m 9,7 km/h (2 Bft) 95,74 %
17.12.2018 19:50 5,4 C 5,0 C 4,4 C 95 % 1021,2 hPa 0,0 l/m 0 min 0 min 0 W/m 9,7 km/h (2 Bft) 95,74 %
17.12.2018 19:52 5,4 C 5,0 C 4,4 C 95 % 1021,2 hPa 0,0 l/m 0 min 0 min 0 W/m 9,7 km/h (2 Bft) 91,49 %
17.12.2018 19:54 5,4 C 5,0 C 4,4 C 95 % 1021,1 hPa 0,0 l/m 0 min 0 min 0 W/m 9,7 km/h (2 Bft) 97,87 %
17.12.2018 19:56 5,4 C 5,0 C 4,4 C 95 % 1021,2 hPa 0,0 l/m 0 min 0 min 0 W/m 12,9 km/h (3 Bft) 97,83 %
17.12.2018 19:58 5,5 C 5,0 C 4,4 C 95 % 1021,2 hPa 0,0 l/m 0 min 0 min 0 W/m 6,4 km/h (2 Bft) 97,87 %
17.12.2018 20:00 5,5 C 5,0 C 4,4 C 95 % 1021,3 hPa 0,0 l/m 0 min 0 min 0 W/m 6,4 km/h (2 Bft) 95,74 %
17.12.2018 20:02 5,5 C 5,0 C 4,4 C 95 % 1021,3 hPa 0,0 l/m 0 min 0 min 0 W/m 16,1 km/h (3 Bft) 100,00 %
17.12.2018 20:04 5,6 C 5,0 C 4,4 C 95 % 1021,3 hPa 0,0 l/m 0 min 0 min 0 W/m 9,7 km/h (2 Bft) 100,00 %
17.12.2018 20:06 5,6 C 5,0 C 4,4 C 95 % 1021,4 hPa 0,0 l/m 0 min 0 min 0 W/m 12,9 km/h (3 Bft) 100,00 %
17.12.2018 20:08 5,6 C 5,0 C 4,4 C 95 % 1021,4 hPa 0,0 l/m 0 min 0 min 0 W/m 12,9 km/h (3 Bft) 100,00 %
17.12.2018 20:10 5,6 C 5,0 C 4,4 C 95 % 1021,4 hPa 0,0 l/m 0 min 0 min 0 W/m 12,9 km/h (3 Bft) 97,87 %
17.12.2018 20:12 5,6 C 5,0 C 4,4 C 95 % 1021,4 hPa 0,0 l/m 0 min 0 min 0 W/m 9,7 km/h (2 Bft) 100,00 %
17.12.2018 20:14 5,6 C 5,0 C 4,4 C 95 % 1021,4 hPa 0,0 l/m 0 min 0 min 0 W/m 9,7 km/h (2 Bft) 100,00 %
17.12.2018 20:16 5,6 C 5,0 C 4,4 C 95 % 1021,5 hPa 0,0 l/m 0 min 0 min 0 W/m 12,9 km/h (3 Bft) 100,00 %
17.12.2018 20:18 5,6 C 5,0 C 4,4 C 95 % 1021,5 hPa 0,0 l/m 0 min 0 min 0 W/m 6,4 km/h (2 Bft) 100,00 %
17.12.2018 20:20 5,6 C 5,0 C 4,4 C 95 % 1021,5 hPa 0,0 l/m 0 min 0 min 0 W/m 6,4 km/h (2 Bft) 100,00 %
17.12.2018 20:22 5,6 C 5,0 C 4,4 C 95 % 1021,5 hPa 0,0 l/m 0 min 0 min 0 W/m 9,7 km/h (2 Bft) 100,00 %
17.12.2018 20:24 5,6 C 5,0 C 4,4 C 95 % 1021,5 hPa 0,0 l/m 0 min 0 min 0 W/m 9,7 km/h (2 Bft) 100,00 %
17.12.2018 20:26 5,6 C 5,0 C 4,4 C 95 % 1021,5 hPa 0,0 l/m 0 min 0 min 0 W/m 12,9 km/h (3 Bft) 100,00 %
17.12.2018 20:28 5,6 C 5,0 C 4,4 C 95 % 1021,5 hPa 0,0 l/m 0 min 0 min 0 W/m 12,9 km/h (3 Bft) 100,00 %
17.12.2018 20:30 5,6 C 4,4 C 4,4 C 95 % 1021,5 hPa 0,0 l/m 0 min 0 min 0 W/m 6,4 km/h (2 Bft) 97,83 %
17.12.2018 20:32 5,6 C 4,4 C 4,4 C 95 % 1021,6 hPa 0,0 l/m 0 min 0 min 0 W/m 9,7 km/h (2 Bft) 95,74 %
17.12.2018 20:34 5,6 C 5,0 C 4,4 C 95 % 1021,6 hPa 0,0 l/m 0 min 0 min 0 W/m 12,9 km/h (3 Bft) 97,87 %
17.12.2018 20:36 5,6 C 5,0 C 4,4 C 95 % 1021,6 hPa 0,0 l/m 0 min 0 min 0 W/m 12,9 km/h (3 Bft) 100,00 %
17.12.2018 20:38 5,6 C 4,4 C 4,4 C 95 % 1021,6 hPa 0,0 l/m 0 min 0 min 0 W/m 6,4 km/h (2 Bft) 100,00 %
17.12.2018 20:40 5,6 C 4,4 C 3,9 C 95 % 1021,5 hPa 0,0 l/m 0 min 0 min 0 W/m 9,7 km/h (2 Bft) 97,87 %
17.12.2018 20:42 5,6 C 4,4 C 3,9 C 95 % 1021,6 hPa 0,0 l/m 0 min 0 min 0 W/m 6,4 km/h (2 Bft) 97,83 %
17.12.2018 20:44 5,5 C 4,4 C 3,9 C 95 % 1021,7 hPa 0,0 l/m 0 min 0 min 0 W/m 6,4 km/h (2 Bft) 97,87 %
17.12.2018 20:46 5,5 C 4,4 C 3,9 C 95 % 1021,7 hPa 0,0 l/m 0 min 0 min 0 W/m 6,4 km/h (2 Bft) 95,74 %
17.12.2018 20:48 5,5 C 4,4 C 3,9 C 95 % 1021,6 hPa 0,0 l/m 0 min 0 min 0 W/m 6,4 km/h (2 Bft) 97,87 %
17.12.2018 20:50 5,4 C 4,4 C 3,9 C 95 % 1021,7 hPa 0,0 l/m 0 min 0 min 0 W/m 12,9 km/h (3 Bft) 97,87 %
17.12.2018 20:52 5,4 C 4,4 C 3,9 C 95 % 1021,7 hPa 0,0 l/m 0 min 0 min 0 W/m 12,9 km/h (3 Bft) 97,87 %
17.12.2018 20:54 5,4 C 4,4 C 3,9 C 95 % 1021,7 hPa 0,0 l/m 0 min 0 min 0 W/m 12,9 km/h (3 Bft) 100,00 %
17.12.2018 20:56 5,4 C 4,4 C 3,9 C 95 % 1021,7 hPa 0,0 l/m 0 min 0 min 0 W/m 9,7 km/h (2 Bft) 97,87 %
17.12.2018 20:58 5,4 C 4,4 C 3,9 C 95 % 1021,7 hPa 0,0 l/m 0 min 0 min 0 W/m 12,9 km/h (3 Bft) 97,87 %
17.12.2018 21:00 5,3 C 4,4 C 3,9 C 95 % 1021,7 hPa 0,0 l/m 0 min 0 min 0 W/m 6,4 km/h (2 Bft) 97,87 %
17.12.2018 21:02 5,3 C 4,4 C 3,9 C 95 % 1021,8 hPa 0,0 l/m 0 min 0 min 0 W/m 9,7 km/h (2 Bft) 97,87 %
17.12.2018 21:04 5,3 C 4,4 C 3,9 C 95 % 1021,8 hPa 0,0 l/m 0 min 0 min 0 W/m 9,7 km/h (2 Bft) 97,87 %
17.12.2018 21:06 5,3 C 4,4 C 3,9 C 95 % 1021,7 hPa 0,0 l/m 0 min 0 min 0 W/m 9,7 km/h (2 Bft) 95,65 %
17.12.2018 21:08 5,3 C 4,4 C 3,9 C 95 % 1021,7 hPa 0,0 l/m 0 min 0 min 0 W/m 6,4 km/h (2 Bft) 97,87 %
17.12.2018 21:10 5,3 C 4,4 C 3,9 C 95 % 1021,8 hPa 0,0 l/m 0 min 0 min 0 W/m 12,9 km/h (3 Bft) 97,87 %
17.12.2018 21:12 5,3 C 4,4 C 3,9 C 95 % 1021,8 hPa 0,0 l/m 0 min 0 min 0 W/m 16,1 km/h (3 Bft) 95,74 %
17.12.2018 21:14 5,3 C 4,4 C 3,9 C 95 % 1021,9 hPa 0,0 l/m 0 min 0 min 0 W/m 12,9 km/h (3 Bft) 97,87 %
17.12.2018 21:16 5,3 C 4,4 C 3,9 C 95 % 1021,9 hPa 0,0 l/m 0 min 0 min 0 W/m 16,1 km/h (3 Bft) 95,74 %
17.12.2018 21:18 5,3 C 4,4 C 3,9 C 95 % 1021,9 hPa 0,0 l/m 0 min 0 min 0 W/m 9,7 km/h (2 Bft) 97,83 %
17.12.2018 21:20 5,3 C 4,4 C 3,9 C 95 % 1022,0 hPa 0,0 l/m 0 min 0 min 0 W/m 6,4 km/h (2 Bft) 97,87 %
17.12.2018 21:22 5,3 C 4,4 C 3,9 C 95 % 1022,0 hPa 0,0 l/m 0 min 0 min 0 W/m 9,7 km/h (2 Bft) 97,87 %
17.12.2018 21:24 5,3 C 4,4 C 4,4 C 95 % 1022,0 hPa 0,0 l/m 0 min 0 min 0 W/m 12,9 km/h (3 Bft) 97,87 %
17.12.2018 21:26 5,3 C 4,4 C 3,9 C 95 % 1022,0 hPa 0,0 l/m 0 min 0 min 0 W/m 12,9 km/h (3 Bft) 100,00 %
17.12.2018 21:28 5,3 C 4,4 C 4,4 C 95 % 1022,0 hPa 0,0 l/m 0 min 0 min 0 W/m 12,9 km/h (3 Bft) 100,00 %
17.12.2018 21:30 5,3 C 4,4 C 4,4 C 95 % 1022,0 hPa 0,0 l/m 0 min 0 min 0 W/m 9,7 km/h (2 Bft) 100,00 %
17.12.2018 21:32 5,3 C 4,4 C 4,4 C 95 % 1022,0 hPa 0,0 l/m 0 min 0 min 0 W/m 16,1 km/h (3 Bft) 97,96 %
17.12.2018 21:34 5,3 C 4,4 C 4,4 C 95 % 1022,0 hPa 0,0 l/m 0 min 0 min 0 W/m 12,9 km/h (3 Bft) 100,00 %
17.12.2018 21:36 5,4 C 5,0 C 4,4 C 95 % 1022,1 hPa 0,0 l/m 0 min 0 min 0 W/m 12,9 km/h (3 Bft) 100,00 %
17.12.2018 21:38 5,4 C 5,0 C 4,4 C 95 % 1022,1 hPa 0,0 l/m 0 min 0 min 0 W/m 16,1 km/h (3 Bft) 100,00 %
17.12.2018 21:40 5,4 C 5,0 C 4,4 C 95 % 1022,1 hPa 0,0 l/m 0 min 0 min 0 W/m 12,9 km/h (3 Bft) 100,00 %
17.12.2018 21:42 5,4 C 4,4 C 4,4 C 95 % 1022,1 hPa 0,0 l/m 0 min 0 min 0 W/m 16,1 km/h (3 Bft) 97,87 %
17.12.2018 21:44 5,4 C 4,4 C 4,4 C 95 % 1022,1 hPa 0,0 l/m 0 min 0 min 0 W/m 12,9 km/h (3 Bft) 97,87 %
17.12.2018 21:46 5,4 C 4,4 C 3,9 C 95 % 1022,1 hPa 0,0 l/m 0 min 0 min 0 W/m 9,7 km/h (2 Bft) 100,00 %
17.12.2018 21:48 5,4 C 4,4 C 3,9 C 95 % 1022,1 hPa 0,0 l/m 0 min 0 min 0 W/m 6,4 km/h (2 Bft) 100,00 %
17.12.2018 21:50 5,4 C 4,4 C 3,9 C 95 % 1022,1 hPa 0,0 l/m 0 min 0 min 0 W/m 19,3 km/h (3 Bft) 97,87 %
17.12.2018 21:52 5,4 C 4,4 C 4,4 C 96 % 1022,1 hPa 0,0 l/m 0 min 0 min 0 W/m 12,9 km/h (3 Bft) 97,83 %
17.12.2018 21:54 5,4 C 4,4 C 4,4 C 96 % 1022,1 hPa 0,0 l/m 0 min 0 min 0 W/m 12,9 km/h (3 Bft) 95,74 %
17.12.2018 21:56 5,4 C 4,4 C 3,9 C 96 % 1022,1 hPa 0,0 l/m 0 min 0 min 0 W/m 6,4 km/h (2 Bft) 97,87 %
17.12.2018 21:58 5,4 C 4,4 C 3,9 C 96 % 1022,1 hPa 0,0 l/m 0 min 0 min 0 W/m 19,3 km/h (3 Bft) 97,87 %
17.12.2018 22:00 5,3 C 4,4 C 3,9 C 96 % 1022,1 hPa 0,0 l/m 0 min 0 min 0 W/m 9,7 km/h (2 Bft) 97,87 %
17.12.2018 22:02 5,3 C 4,4 C 3,9 C 96 % 1022,1 hPa 0,0 l/m 0 min 0 min 0 W/m 9,7 km/h (2 Bft) 95,74 %
17.12.2018 22:04 5,3 C 4,4 C 3,9 C 96 % 1022,1 hPa 0,0 l/m 0 min 0 min 0 W/m 9,7 km/h (2 Bft) 97,83 %
17.12.2018 22:06 5,3 C 4,4 C 3,9 C 95 % 1022,1 hPa 0,0 l/m 0 min 0 min 0 W/m 9,7 km/h (2 Bft) 91,49 %
17.12.2018 22:08 5,3 C 4,4 C 3,9 C 96 % 1022,2 hPa 0,0 l/m 0 min 0 min 0 W/m 6,4 km/h (2 Bft) 97,87 %
17.12.2018 22:10 5,3 C 4,4 C 3,9 C 96 % 1022,2 hPa 0,0 l/m 0 min 0 min 0 W/m 9,7 km/h (2 Bft) 93,62 %
17.12.2018 22:12 5,2 C 4,4 C 3,9 C 96 % 1022,2 hPa 0,0 l/m 0 min 0 min 0 W/m 6,4 km/h (2 Bft) 95,74 %
17.12.2018 22:14 5,2 C 3,9 C 3,3 C 95 % 1022,1 hPa 0,0 l/m 0 min 0 min 0 W/m 6,4 km/h (2 Bft) 100,00 %
17.12.2018 22:16 5,2 C 4,4 C 3,3 C 95 % 1022,2 hPa 0,0 l/m 0 min 0 min 0 W/m 9,7 km/h (2 Bft) 97,87 %
17.12.2018 22:18 5,2 C 3,9 C 3,3 C 95 % 1022,2 hPa 0,0 l/m 0 min 0 min 0 W/m 6,4 km/h (2 Bft) 97,87 %
17.12.2018 22:20 5,1 C 3,9 C 3,3 C 95 % 1022,4 hPa 0,0 l/m 0 min 0 min 0 W/m 6,4 km/h (2 Bft) 95,74 %
17.12.2018 22:22 5,1 C 3,9 C 3,3 C 95 % 1022,3 hPa 0,0 l/m 0 min 0 min 0 W/m 6,4 km/h (2 Bft) 97,87 %
17.12.2018 22:24 5,1 C 3,9 C 3,3 C 95 % 1022,3 hPa 0,0 l/m 0 min 0 min 0 W/m 9,7 km/h (2 Bft) 97,87 %
17.12.2018 22:26 5,0 C 3,9 C 3,3 C 95 % 1022,2 hPa 0,0 l/m 0 min 0 min 0 W/m 6,4 km/h (2 Bft) 97,87 %
17.12.2018 22:28 5,0 C 3,9 C 3,3 C 95 % 1022,2 hPa 0,0 l/m 0 min 0 min 0 W/m 9,7 km/h (2 Bft) 95,65 %
17.12.2018 22:30 4,9 C 3,9 C 3,3 C 95 % 1022,3 hPa 0,0 l/m 0 min 0 min 0 W/m 3,2 km/h (1 Bft) 95,74 %
17.12.2018 22:32 4,9 C 3,9 C 3,3 C 95 % 1022,4 hPa 0,0 l/m 0 min 0 min 0 W/m 3,2 km/h (1 Bft) 93,62 %
17.12.2018 22:34 4,9 C 3,9 C 3,3 C 95 % 1022,4 hPa 0,0 l/m 0 min 0 min 0 W/m 0,0 km/h (0 Bft) 97,87 %
17.12.2018 22:36 4,9 C 3,9 C 2,8 C 95 % 1022,4 hPa 0,0 l/m 0 min 0 min 0 W/m 0,0 km/h (0 Bft) 95,74 %
17.12.2018 22:38 4,8 C 3,9 C 2,8 C 95 % 1022,4 hPa 0,0 l/m 0 min 0 min 0 W/m 0,0 km/h (0 Bft) 93,48 %
17.12.2018 22:40 4,8 C 3,9 C 2,8 C 95 % 1022,3 hPa 0,0 l/m 0 min 0 min 0 W/m 0,0 km/h (0 Bft) 95,74 %
17.12.2018 22:42 4,8 C 3,3 C 2,8 C 95 % 1022,3 hPa 0,0 l/m 0 min 0 min 0 W/m 0,0 km/h (0 Bft) 91,49 %
17.12.2018 22:44 4,7 C 3,3 C 2,8 C 95 % 1022,4 hPa 0,0 l/m 0 min 0 min 0 W/m 0,0 km/h (0 Bft) 93,62 %
17.12.2018 22:46 4,7 C 3,3 C 2,8 C 95 % 1022,4 hPa 0,0 l/m 0 min 0 min 0 W/m 0,0 km/h (0 Bft) 93,62 %
17.12.2018 22:48 4,7 C 3,3 C 2,8 C 95 % 1022,3 hPa 0,0 l/m 0 min 0 min 0 W/m 0,0 km/h (0 Bft) 97,87 %
17.12.2018 22:50 4,6 C 3,3 C 2,8 C 95 % 1022,4 hPa 0,0 l/m 0 min 0 min 0 W/m 0,0 km/h (0 Bft) 97,83 %
17.12.2018 22:52 4,6 C 3,3 C 2,8 C 95 % 1022,4 hPa 0,0 l/m 0 min 0 min 0 W/m 0,0 km/h (0 Bft) 95,74 %
17.12.2018 22:54 4,6 C 3,3 C 2,8 C 95 % 1022,3 hPa 0,0 l/m 0 min 0 min 0 W/m 0,0 km/h (0 Bft) 95,74 %
17.12.2018 22:56 4,5 C 3,3 C 2,8 C 95 % 1022,5 hPa 0,0 l/m 0 min 0 min 0 W/m 0,0 km/h (0 Bft) 97,87 %
17.12.2018 22:58 4,4 C 3,3 C 2,8 C 95 % 1022,5 hPa 0,0 l/m 0 min 0 min 0 W/m 0,0 km/h (0 Bft) 95,74 %
17.12.2018 23:00 4,4 C 3,3 C 2,8 C 95 % 1022,5 hPa 0,0 l/m 0 min 0 min 0 W/m 0,0 km/h (0 Bft) 95,74 %
17.12.2018 23:02 4,4 C 3,3 C 2,8 C 95 % 1022,5 hPa 0,0 l/m 0 min 0 min 0 W/m 0,0 km/h (0 Bft) 97,83 %
17.12.2018 23:04 4,3 C 3,3 C 2,8 C 95 % 1022,5 hPa 0,0 l/m 0 min 0 min 0 W/m 0,0 km/h (0 Bft) 97,87 %
17.12.2018 23:06 4,3 C 3,3 C 2,8 C 95 % 1022,5 hPa 0,0 l/m 0 min 0 min 0 W/m 0,0 km/h (0 Bft) 97,87 %
17.12.2018 23:08 4,3 C 3,3 C 2,8 C 95 % 1022,6 hPa 0,0 l/m 0 min 0 min 0 W/m 9,7 km/h (2 Bft) 97,87 %
17.12.2018 23:10 4,3 C 3,9 C 2,8 C 95 % 1022,6 hPa 0,0 l/m 0 min 0 min 0 W/m 9,7 km/h (2 Bft) 95,74 %
17.12.2018 23:12 4,3 C 3,9 C 2,8 C 95 % 1022,7 hPa 0,0 l/m 0 min 0 min 0 W/m 12,9 km/h (3 Bft) 97,87 %
17.12.2018 23:14 4,3 C 3,9 C 3,3 C 95 % 1022,7 hPa 0,0 l/m 0 min 0 min 0 W/m 9,7 km/h (2 Bft) 95,65 %
17.12.2018 23:16 4,3 C 3,9 C 3,3 C 95 % 1022,7 hPa 0,0 l/m 0 min 0 min 0 W/m 6,4 km/h (2 Bft) 95,74 %
17.12.2018 23:18 4,3 C 3,9 C 3,3 C 95 % 1022,7 hPa 0,0 l/m 0 min 0 min 0 W/m 9,7 km/h (2 Bft) 95,74 %
17.12.2018 23:20 4,3 C 3,9 C 3,3 C 95 % 1022,7 hPa 0,0 l/m 0 min 0 min 0 W/m 6,4 km/h (2 Bft) 95,74 %
17.12.2018 23:22 4,3 C 4,4 C 3,3 C 95 % 1022,7 hPa 0,0 l/m 0 min 0 min 0 W/m 19,3 km/h (3 Bft) 95,74 %
17.12.2018 23:24 4,4 C 4,4 C 3,3 C 96 % 1022,7 hPa 0,0 l/m 0 min 0 min 0 W/m 9,7 km/h (2 Bft) 89,36 %
17.12.2018 23:26 4,4 C 4,4 C 3,3 C 96 % 1022,8 hPa 0,0 l/m 0 min 0 min 0 W/m 12,9 km/h (3 Bft) 95,65 %
17.12.2018 23:28 4,4 C 4,4 C 3,9 C 96 % 1022,7 hPa 0,0 l/m 0 min 0 min 0 W/m 16,1 km/h (3 Bft) 91,49 %
17.12.2018 23:30 4,5 C 4,4 C 3,9 C 96 % 1022,8 hPa 0,0 l/m 0 min 0 min 0 W/m 9,7 km/h (2 Bft) 93,88 %
17.12.2018 23:32 4,6 C 4,4 C 3,9 C 96 % 1022,8 hPa 0,0 l/m 0 min 0 min 0 W/m 6,4 km/h (2 Bft) 95,65 %
17.12.2018 23:34 4,6 C 4,4 C 3,9 C 96 % 1022,7 hPa 0,0 l/m 0 min 0 min 0 W/m 12,9 km/h (3 Bft) 95,74 %
17.12.2018 23:36 4,6 C 4,4 C 3,9 C 96 % 1022,8 hPa 0,0 l/m 0 min 0 min 0 W/m 9,7 km/h (2 Bft) 95,74 %
17.12.2018 23:38 4,6 C 4,4 C 3,9 C 96 % 1022,8 hPa 0,0 l/m 0 min 0 min 0 W/m 6,4 km/h (2 Bft) 97,87 %
17.12.2018 23:40 4,7 C 4,4 C 3,9 C 96 % 1022,9 hPa 0,0 l/m 0 min 0 min 0 W/m 6,4 km/h (2 Bft) 95,74 %
17.12.2018 23:42 4,7 C 4,4 C 3,9 C 96 % 1022,9 hPa 0,0 l/m 0 min 0 min 0 W/m 9,7 km/h (2 Bft) 89,36 %
17.12.2018 23:44 4,7 C 4,4 C 3,9 C 96 % 1022,9 hPa 0,0 l/m 0 min 0 min 0 W/m 9,7 km/h (2 Bft) 95,65 %
17.12.2018 23:46 4,7 C 4,4 C 3,9 C 96 % 1022,9 hPa 0,0 l/m 0 min 0 min 0 W/m 9,7 km/h (2 Bft) 91,49 %
17.12.2018 23:48 4,8 C 4,4 C 3,9 C 96 % 1022,9 hPa 0,0 l/m 0 min 0 min 0 W/m 12,9 km/h (3 Bft) 80,85 %
17.12.2018 23:50 4,8 C 4,4 C 3,9 C 96 % 1022,9 hPa 0,0 l/m 0 min 0 min 0 W/m 12,9 km/h (3 Bft) 78,72 %
17.12.2018 23:52 4,8 C 4,4 C 3,9 C 96 % 1023,0 hPa 0,0 l/m 0 min 0 min 0 W/m 9,7 km/h (2 Bft) 87,23 %
17.12.2018 23:54 4,8 C 4,4 C 3,9 C 96 % 1022,9 hPa 0,0 l/m 0 min 0 min 0 W/m 6,4 km/h (2 Bft) 87,23 %
17.12.2018 23:56 4,8 C 4,4 C 3,9 C 96 % 1022,9 hPa 0,0 l/m 0 min 0 min 0 W/m 9,7 km/h (2 Bft) 80,43 %
17.12.2018 23:58 4,8 C 4,4 C 3,9 C 96 % 1022,9 hPa 0,0 l/m 0 min 0 min 0 W/m 6,4 km/h (2 Bft) 87,23 %
_ Min-Zeit 00:00 00:24 01:50 17:18 02:08 - - - - 00:00 00:02
Minimum _ 1,3 C 0,6 C 0,0 C 93 % 1011,6 hPa - - - - 0,0 km/h (0 Bft) 12,50 %
_ Max-Zeit 16:02 11:50 11:46 11:30 23:52 01:52 11:48 05:40 12:02 07:38 00:00
Maximum _ 6,9 C 7,2 C 5,6 C 99 % 1023,0 hPa 0,2 l/m 2 min 2 min 254 W/m 29,0 km/h
SO (5 Bft)
100,00 %
Durchschnitt _ 4,3 C 3,6 C 3,0 C 96 % 1016,3 hPa #4,8 l/m #40 min. #5:30 h 45 W/m 11,0 km/h (2 Bft) 97,07 %
© 2018 W. Hausmann